<?xml version="1.0" encoding="UTF-8" standalone="no" ?>
<gpx xmlns="http://www.topografix.com/GPX/1/1" xmlns:xsi="http://www.w3.org/2001/XMLSchema-instance" xsi:schemaLocation="http://www.topografix.com/GPX/1/1 http://www.topografix.com/GPX/1/1/gpx.xsd" version="1.1" creator="VisuGPX - https://www.visugpx.com">
  <metadata>
    <name>Le Teillon</name>
    <desc><![CDATA[Avant castellane au village La Garde s\'arrêter au parking devant le restaurant le teillon.

Du même côté que le parking prendre le chemin .
C\'est indiqué .]]></desc>
  </metadata>
  <trk>
    <name><![CDATA[teillon-23-11-2014]]></name>
    <trkseg>
      <trkpt lat="43.8305" lon="6.55761">
        <ele>949.2</ele>
        <time>2014-11-23T08:06:59Z</time>
      </trkpt>
      <trkpt lat="43.8305" lon="6.55762">
        <ele>951.7</ele>
        <time>2014-11-23T08:07:00Z</time>
      </trkpt>
      <trkpt lat="43.83047" lon="6.55774">
        <ele>955.2</ele>
        <time>2014-11-23T08:07:08Z</time>
      </trkpt>
      <trkpt lat="43.83047" lon="6.55787">
        <ele>955.5</ele>
        <time>2014-11-23T08:07:17Z</time>
      </trkpt>
      <trkpt lat="43.83046" lon="6.558">
        <ele>955.4</ele>
        <time>2014-11-23T08:07:27Z</time>
      </trkpt>
      <trkpt lat="43.83053" lon="6.55809">
        <ele>957.1</ele>
        <time>2014-11-23T08:07:49Z</time>
      </trkpt>
      <trkpt lat="43.83061" lon="6.55816">
        <ele>957.7</ele>
        <time>2014-11-23T08:08:03Z</time>
      </trkpt>
      <trkpt lat="43.83072" lon="6.55821">
        <ele>961.2</ele>
        <time>2014-11-23T08:08:20Z</time>
      </trkpt>
      <trkpt lat="43.83075" lon="6.55833">
        <ele>963.4</ele>
        <time>2014-11-23T08:08:34Z</time>
      </trkpt>
      <trkpt lat="43.83076" lon="6.55846">
        <ele>967.1</ele>
        <time>2014-11-23T08:08:50Z</time>
      </trkpt>
      <trkpt lat="43.83081" lon="6.55857">
        <ele>969.7</ele>
        <time>2014-11-23T08:09:06Z</time>
      </trkpt>
      <trkpt lat="43.83091" lon="6.55854">
        <ele>972.5</ele>
        <time>2014-11-23T08:09:23Z</time>
      </trkpt>
      <trkpt lat="43.831" lon="6.5585">
        <ele>975.5</ele>
        <time>2014-11-23T08:09:38Z</time>
      </trkpt>
      <trkpt lat="43.83109" lon="6.55849">
        <ele>976.6</ele>
        <time>2014-11-23T08:09:50Z</time>
      </trkpt>
      <trkpt lat="43.83117" lon="6.55842">
        <ele>978.5</ele>
        <time>2014-11-23T08:10:05Z</time>
      </trkpt>
      <trkpt lat="43.83122" lon="6.55832">
        <ele>980.3</ele>
        <time>2014-11-23T08:10:18Z</time>
      </trkpt>
      <trkpt lat="43.83127" lon="6.55821">
        <ele>981.5</ele>
        <time>2014-11-23T08:10:26Z</time>
      </trkpt>
      <trkpt lat="43.83132" lon="6.55811">
        <ele>982.3</ele>
        <time>2014-11-23T08:10:35Z</time>
      </trkpt>
      <trkpt lat="43.8314" lon="6.55804">
        <ele>983.6</ele>
        <time>2014-11-23T08:10:46Z</time>
      </trkpt>
      <trkpt lat="43.83148" lon="6.55796">
        <ele>985.1</ele>
        <time>2014-11-23T08:10:56Z</time>
      </trkpt>
      <trkpt lat="43.83155" lon="6.55788">
        <ele>986.9</ele>
        <time>2014-11-23T08:11:06Z</time>
      </trkpt>
      <trkpt lat="43.83162" lon="6.55779">
        <ele>988.7</ele>
        <time>2014-11-23T08:11:15Z</time>
      </trkpt>
      <trkpt lat="43.8317" lon="6.55773">
        <ele>991.1</ele>
        <time>2014-11-23T08:11:28Z</time>
      </trkpt>
      <trkpt lat="43.83178" lon="6.55767">
        <ele>994.1</ele>
        <time>2014-11-23T08:11:42Z</time>
      </trkpt>
      <trkpt lat="43.83187" lon="6.55763">
        <ele>996</ele>
        <time>2014-11-23T08:11:50Z</time>
      </trkpt>
      <trkpt lat="43.83196" lon="6.55761">
        <ele>998.8</ele>
        <time>2014-11-23T08:12:04Z</time>
      </trkpt>
      <trkpt lat="43.83205" lon="6.55755">
        <ele>1001.4</ele>
        <time>2014-11-23T08:12:17Z</time>
      </trkpt>
      <trkpt lat="43.83213" lon="6.55751">
        <ele>1002.9</ele>
        <time>2014-11-23T08:12:26Z</time>
      </trkpt>
      <trkpt lat="43.83222" lon="6.55747">
        <ele>1004.6</ele>
        <time>2014-11-23T08:12:35Z</time>
      </trkpt>
      <trkpt lat="43.83232" lon="6.55746">
        <ele>1006.2</ele>
        <time>2014-11-23T08:12:43Z</time>
      </trkpt>
      <trkpt lat="43.83239" lon="6.55739">
        <ele>1008.4</ele>
        <time>2014-11-23T08:12:53Z</time>
      </trkpt>
      <trkpt lat="43.83248" lon="6.55737">
        <ele>1011.4</ele>
        <time>2014-11-23T08:13:06Z</time>
      </trkpt>
      <trkpt lat="43.83257" lon="6.55741">
        <ele>1012.6</ele>
        <time>2014-11-23T08:13:13Z</time>
      </trkpt>
      <trkpt lat="43.83267" lon="6.55742">
        <ele>1013.9</ele>
        <time>2014-11-23T08:13:20Z</time>
      </trkpt>
      <trkpt lat="43.83277" lon="6.5574">
        <ele>1014.9</ele>
        <time>2014-11-23T08:13:29Z</time>
      </trkpt>
      <trkpt lat="43.83287" lon="6.55744">
        <ele>1015.4</ele>
        <time>2014-11-23T08:13:34Z</time>
      </trkpt>
      <trkpt lat="43.83296" lon="6.55747">
        <ele>1016</ele>
        <time>2014-11-23T08:13:39Z</time>
      </trkpt>
      <trkpt lat="43.83305" lon="6.55743">
        <ele>1017.4</ele>
        <time>2014-11-23T08:13:47Z</time>
      </trkpt>
      <trkpt lat="43.83313" lon="6.55737">
        <ele>1019.4</ele>
        <time>2014-11-23T08:13:58Z</time>
      </trkpt>
      <trkpt lat="43.83329" lon="6.55725">
        <ele>1023.9</ele>
        <time>2014-11-23T08:14:21Z</time>
      </trkpt>
      <trkpt lat="43.83335" lon="6.55714">
        <ele>1026.8</ele>
        <time>2014-11-23T08:14:36Z</time>
      </trkpt>
      <trkpt lat="43.8334" lon="6.55702">
        <ele>1030.7</ele>
        <time>2014-11-23T08:14:56Z</time>
      </trkpt>
      <trkpt lat="43.83345" lon="6.5569">
        <ele>1033.4</ele>
        <time>2014-11-23T08:15:09Z</time>
      </trkpt>
      <trkpt lat="43.83354" lon="6.55667">
        <ele>1039.9</ele>
        <time>2014-11-23T08:15:38Z</time>
      </trkpt>
      <trkpt lat="43.83357" lon="6.55655">
        <ele>1042.1</ele>
        <time>2014-11-23T08:15:50Z</time>
      </trkpt>
      <trkpt lat="43.83359" lon="6.55643">
        <ele>1043.6</ele>
        <time>2014-11-23T08:16:01Z</time>
      </trkpt>
      <trkpt lat="43.83366" lon="6.55634">
        <ele>1046.5</ele>
        <time>2014-11-23T08:16:16Z</time>
      </trkpt>
      <trkpt lat="43.83383" lon="6.5562">
        <ele>1050.2</ele>
        <time>2014-11-23T08:17:21Z</time>
      </trkpt>
      <trkpt lat="43.83401" lon="6.55633">
        <ele>1052.4</ele>
        <time>2014-11-23T08:17:50Z</time>
      </trkpt>
      <trkpt lat="43.83411" lon="6.55633">
        <ele>1053.4</ele>
        <time>2014-11-23T08:18:00Z</time>
      </trkpt>
      <trkpt lat="43.8342" lon="6.55637">
        <ele>1054.3</ele>
        <time>2014-11-23T08:18:08Z</time>
      </trkpt>
      <trkpt lat="43.83428" lon="6.55644">
        <ele>1055.9</ele>
        <time>2014-11-23T08:18:20Z</time>
      </trkpt>
      <trkpt lat="43.83436" lon="6.55653">
        <ele>1057.7</ele>
        <time>2014-11-23T08:18:31Z</time>
      </trkpt>
      <trkpt lat="43.83447" lon="6.55675">
        <ele>1061.5</ele>
        <time>2014-11-23T08:18:50Z</time>
      </trkpt>
      <trkpt lat="43.83451" lon="6.55688">
        <ele>1063.8</ele>
        <time>2014-11-23T08:19:02Z</time>
      </trkpt>
      <trkpt lat="43.83453" lon="6.55701">
        <ele>1066.1</ele>
        <time>2014-11-23T08:19:14Z</time>
      </trkpt>
      <trkpt lat="43.83453" lon="6.55713">
        <ele>1067.9</ele>
        <time>2014-11-23T08:19:24Z</time>
      </trkpt>
      <trkpt lat="43.83456" lon="6.55727">
        <ele>1069.5</ele>
        <time>2014-11-23T08:19:33Z</time>
      </trkpt>
      <trkpt lat="43.83459" lon="6.55753">
        <ele>1073.4</ele>
        <time>2014-11-23T08:19:53Z</time>
      </trkpt>
      <trkpt lat="43.8346" lon="6.55767">
        <ele>1074</ele>
        <time>2014-11-23T08:20:01Z</time>
      </trkpt>
      <trkpt lat="43.83464" lon="6.55779">
        <ele>1075.2</ele>
        <time>2014-11-23T08:20:10Z</time>
      </trkpt>
      <trkpt lat="43.83466" lon="6.55791">
        <ele>1077.2</ele>
        <time>2014-11-23T08:20:19Z</time>
      </trkpt>
      <trkpt lat="43.83466" lon="6.55804">
        <ele>1078.6</ele>
        <time>2014-11-23T08:20:28Z</time>
      </trkpt>
      <trkpt lat="43.83466" lon="6.55817">
        <ele>1080.8</ele>
        <time>2014-11-23T08:20:38Z</time>
      </trkpt>
      <trkpt lat="43.8347" lon="6.55841">
        <ele>1086</ele>
        <time>2014-11-23T08:21:03Z</time>
      </trkpt>
      <trkpt lat="43.83473" lon="6.55854">
        <ele>1087.4</ele>
        <time>2014-11-23T08:21:12Z</time>
      </trkpt>
      <trkpt lat="43.83477" lon="6.55866">
        <ele>1089.2</ele>
        <time>2014-11-23T08:21:20Z</time>
      </trkpt>
      <trkpt lat="43.8348" lon="6.55879">
        <ele>1090.7</ele>
        <time>2014-11-23T08:21:30Z</time>
      </trkpt>
      <trkpt lat="43.83482" lon="6.55892">
        <ele>1092.3</ele>
        <time>2014-11-23T08:21:40Z</time>
      </trkpt>
      <trkpt lat="43.8349" lon="6.55915">
        <ele>1098.3</ele>
        <time>2014-11-23T08:22:11Z</time>
      </trkpt>
      <trkpt lat="43.83499" lon="6.55917">
        <ele>1101.9</ele>
        <time>2014-11-23T08:22:33Z</time>
      </trkpt>
      <trkpt lat="43.83502" lon="6.55905">
        <ele>1105.9</ele>
        <time>2014-11-23T08:22:51Z</time>
      </trkpt>
      <trkpt lat="43.83516" lon="6.55922">
        <ele>1110.3</ele>
        <time>2014-11-23T08:23:13Z</time>
      </trkpt>
      <trkpt lat="43.83522" lon="6.55932">
        <ele>1111.5</ele>
        <time>2014-11-23T08:23:20Z</time>
      </trkpt>
      <trkpt lat="43.8353" lon="6.55941">
        <ele>1113.6</ele>
        <time>2014-11-23T08:23:31Z</time>
      </trkpt>
      <trkpt lat="43.83535" lon="6.55952">
        <ele>1115.1</ele>
        <time>2014-11-23T08:23:47Z</time>
      </trkpt>
      <trkpt lat="43.83543" lon="6.5596">
        <ele>1116.4</ele>
        <time>2014-11-23T08:23:57Z</time>
      </trkpt>
      <trkpt lat="43.83554" lon="6.55983">
        <ele>1118.4</ele>
        <time>2014-11-23T08:24:14Z</time>
      </trkpt>
      <trkpt lat="43.83559" lon="6.55994">
        <ele>1119.6</ele>
        <time>2014-11-23T08:24:23Z</time>
      </trkpt>
      <trkpt lat="43.83565" lon="6.56005">
        <ele>1121</ele>
        <time>2014-11-23T08:24:32Z</time>
      </trkpt>
      <trkpt lat="43.83566" lon="6.56019">
        <ele>1122.4</ele>
        <time>2014-11-23T08:24:45Z</time>
      </trkpt>
      <trkpt lat="43.83572" lon="6.5603">
        <ele>1124</ele>
        <time>2014-11-23T08:24:52Z</time>
      </trkpt>
      <trkpt lat="43.83575" lon="6.56042">
        <ele>1125.2</ele>
        <time>2014-11-23T08:24:59Z</time>
      </trkpt>
      <trkpt lat="43.83587" lon="6.56062">
        <ele>1128.9</ele>
        <time>2014-11-23T08:25:15Z</time>
      </trkpt>
      <trkpt lat="43.83596" lon="6.56064">
        <ele>1131.8</ele>
        <time>2014-11-23T08:25:32Z</time>
      </trkpt>
      <trkpt lat="43.83603" lon="6.56074">
        <ele>1136</ele>
        <time>2014-11-23T08:25:58Z</time>
      </trkpt>
      <trkpt lat="43.83612" lon="6.5608">
        <ele>1137.2</ele>
        <time>2014-11-23T08:26:09Z</time>
      </trkpt>
      <trkpt lat="43.83622" lon="6.56106">
        <ele>1138.3</ele>
        <time>2014-11-23T08:26:19Z</time>
      </trkpt>
      <trkpt lat="43.83626" lon="6.56117">
        <ele>1138.8</ele>
        <time>2014-11-23T08:26:26Z</time>
      </trkpt>
      <trkpt lat="43.83634" lon="6.56125">
        <ele>1140.5</ele>
        <time>2014-11-23T08:26:40Z</time>
      </trkpt>
      <trkpt lat="43.83642" lon="6.5613">
        <ele>1141.5</ele>
        <time>2014-11-23T08:26:49Z</time>
      </trkpt>
      <trkpt lat="43.83645" lon="6.56142">
        <ele>1142.2</ele>
        <time>2014-11-23T08:26:56Z</time>
      </trkpt>
      <trkpt lat="43.8365" lon="6.56155">
        <ele>1142.9</ele>
        <time>2014-11-23T08:27:03Z</time>
      </trkpt>
      <trkpt lat="43.83654" lon="6.56168">
        <ele>1143.1</ele>
        <time>2014-11-23T08:27:10Z</time>
      </trkpt>
      <trkpt lat="43.83657" lon="6.56193">
        <ele>1144.1</ele>
        <time>2014-11-23T08:27:27Z</time>
      </trkpt>
      <trkpt lat="43.83661" lon="6.56205">
        <ele>1145.5</ele>
        <time>2014-11-23T08:27:39Z</time>
      </trkpt>
      <trkpt lat="43.83666" lon="6.56217">
        <ele>1146.1</ele>
        <time>2014-11-23T08:27:45Z</time>
      </trkpt>
      <trkpt lat="43.83674" lon="6.56226">
        <ele>1147.4</ele>
        <time>2014-11-23T08:27:53Z</time>
      </trkpt>
      <trkpt lat="43.8368" lon="6.56236">
        <ele>1148</ele>
        <time>2014-11-23T08:27:57Z</time>
      </trkpt>
      <trkpt lat="43.83687" lon="6.56246">
        <ele>1149.1</ele>
        <time>2014-11-23T08:28:05Z</time>
      </trkpt>
      <trkpt lat="43.83692" lon="6.56256">
        <ele>1151.7</ele>
        <time>2014-11-23T08:28:18Z</time>
      </trkpt>
      <trkpt lat="43.83712" lon="6.5626">
        <ele>1154.3</ele>
        <time>2014-11-23T08:28:35Z</time>
      </trkpt>
      <trkpt lat="43.83721" lon="6.56255">
        <ele>1154.6</ele>
        <time>2014-11-23T08:29:02Z</time>
      </trkpt>
      <trkpt lat="43.8373" lon="6.56259">
        <ele>1156.3</ele>
        <time>2014-11-23T08:29:13Z</time>
      </trkpt>
      <trkpt lat="43.83738" lon="6.56266">
        <ele>1155.6</ele>
        <time>2014-11-23T08:29:22Z</time>
      </trkpt>
      <trkpt lat="43.83754" lon="6.56272">
        <ele>1158</ele>
        <time>2014-11-23T08:29:52Z</time>
      </trkpt>
      <trkpt lat="43.83762" lon="6.56278">
        <ele>1157.6</ele>
        <time>2014-11-23T08:30:00Z</time>
      </trkpt>
      <trkpt lat="43.8377" lon="6.56287">
        <ele>1158.1</ele>
        <time>2014-11-23T08:30:09Z</time>
      </trkpt>
      <trkpt lat="43.83778" lon="6.56293">
        <ele>1158.9</ele>
        <time>2014-11-23T08:30:18Z</time>
      </trkpt>
      <trkpt lat="43.83785" lon="6.56302">
        <ele>1158.7</ele>
        <time>2014-11-23T08:30:24Z</time>
      </trkpt>
      <trkpt lat="43.83796" lon="6.56322">
        <ele>1159.8</ele>
        <time>2014-11-23T08:30:39Z</time>
      </trkpt>
      <trkpt lat="43.83801" lon="6.56334">
        <ele>1161</ele>
        <time>2014-11-23T08:30:47Z</time>
      </trkpt>
      <trkpt lat="43.83807" lon="6.56344">
        <ele>1162</ele>
        <time>2014-11-23T08:30:54Z</time>
      </trkpt>
      <trkpt lat="43.83814" lon="6.56354">
        <ele>1163.6</ele>
        <time>2014-11-23T08:31:00Z</time>
      </trkpt>
      <trkpt lat="43.83821" lon="6.56363">
        <ele>1165.6</ele>
        <time>2014-11-23T08:31:09Z</time>
      </trkpt>
      <trkpt lat="43.83829" lon="6.56369">
        <ele>1167.7</ele>
        <time>2014-11-23T08:31:18Z</time>
      </trkpt>
      <trkpt lat="43.83835" lon="6.56378">
        <ele>1170</ele>
        <time>2014-11-23T08:31:28Z</time>
      </trkpt>
      <trkpt lat="43.83836" lon="6.56404">
        <ele>1172.8</ele>
        <time>2014-11-23T08:31:56Z</time>
      </trkpt>
      <trkpt lat="43.83835" lon="6.56416">
        <ele>1172.2</ele>
        <time>2014-11-23T08:32:44Z</time>
      </trkpt>
      <trkpt lat="43.83825" lon="6.56451">
        <ele>1179.7</ele>
        <time>2014-11-23T08:42:42Z</time>
      </trkpt>
      <trkpt lat="43.83816" lon="6.56455">
        <ele>1182.3</ele>
        <time>2014-11-23T08:42:53Z</time>
      </trkpt>
      <trkpt lat="43.83807" lon="6.56454">
        <ele>1183.6</ele>
        <time>2014-11-23T08:43:00Z</time>
      </trkpt>
      <trkpt lat="43.83811" lon="6.56465">
        <ele>1185.5</ele>
        <time>2014-11-23T08:43:14Z</time>
      </trkpt>
      <trkpt lat="43.8381" lon="6.56478">
        <ele>1187</ele>
        <time>2014-11-23T08:43:25Z</time>
      </trkpt>
      <trkpt lat="43.83814" lon="6.56506">
        <ele>1191.7</ele>
        <time>2014-11-23T08:43:48Z</time>
      </trkpt>
      <trkpt lat="43.83815" lon="6.56519">
        <ele>1192.9</ele>
        <time>2014-11-23T08:43:54Z</time>
      </trkpt>
      <trkpt lat="43.83815" lon="6.56532">
        <ele>1194</ele>
        <time>2014-11-23T08:44:03Z</time>
      </trkpt>
      <trkpt lat="43.83809" lon="6.56543">
        <ele>1195.8</ele>
        <time>2014-11-23T08:44:12Z</time>
      </trkpt>
      <trkpt lat="43.83808" lon="6.56556">
        <ele>1198.8</ele>
        <time>2014-11-23T08:44:26Z</time>
      </trkpt>
      <trkpt lat="43.83806" lon="6.56581">
        <ele>1203.1</ele>
        <time>2014-11-23T08:45:22Z</time>
      </trkpt>
      <trkpt lat="43.83806" lon="6.56594">
        <ele>1204.5</ele>
        <time>2014-11-23T08:45:30Z</time>
      </trkpt>
      <trkpt lat="43.83798" lon="6.56618">
        <ele>1205.9</ele>
        <time>2014-11-23T08:45:54Z</time>
      </trkpt>
      <trkpt lat="43.83793" lon="6.5663">
        <ele>1206.5</ele>
        <time>2014-11-23T08:46:00Z</time>
      </trkpt>
      <trkpt lat="43.83789" lon="6.56641">
        <ele>1207.1</ele>
        <time>2014-11-23T08:46:07Z</time>
      </trkpt>
      <trkpt lat="43.83795" lon="6.56652">
        <ele>1208.5</ele>
        <time>2014-11-23T08:46:19Z</time>
      </trkpt>
      <trkpt lat="43.838" lon="6.56664">
        <ele>1208.3</ele>
        <time>2014-11-23T08:46:28Z</time>
      </trkpt>
      <trkpt lat="43.8381" lon="6.56665">
        <ele>1208.9</ele>
        <time>2014-11-23T08:46:38Z</time>
      </trkpt>
      <trkpt lat="43.83828" lon="6.56656">
        <ele>1208.9</ele>
        <time>2014-11-23T08:46:52Z</time>
      </trkpt>
      <trkpt lat="43.83837" lon="6.56656">
        <ele>1209.6</ele>
        <time>2014-11-23T08:46:58Z</time>
      </trkpt>
      <trkpt lat="43.83846" lon="6.56661">
        <ele>1210.7</ele>
        <time>2014-11-23T08:47:07Z</time>
      </trkpt>
      <trkpt lat="43.83854" lon="6.56655">
        <ele>1211.7</ele>
        <time>2014-11-23T08:47:16Z</time>
      </trkpt>
      <trkpt lat="43.83861" lon="6.56664">
        <ele>1214</ele>
        <time>2014-11-23T08:47:27Z</time>
      </trkpt>
      <trkpt lat="43.83859" lon="6.56676">
        <ele>1215.6</ele>
        <time>2014-11-23T08:47:36Z</time>
      </trkpt>
      <trkpt lat="43.83851" lon="6.56685">
        <ele>1215.8</ele>
        <time>2014-11-23T08:47:44Z</time>
      </trkpt>
      <trkpt lat="43.83845" lon="6.56709">
        <ele>1220.2</ele>
        <time>2014-11-23T08:48:07Z</time>
      </trkpt>
      <trkpt lat="43.83843" lon="6.56725">
        <ele>1225</ele>
        <time>2014-11-23T08:48:28Z</time>
      </trkpt>
      <trkpt lat="43.83844" lon="6.56737">
        <ele>1228.1</ele>
        <time>2014-11-23T08:48:41Z</time>
      </trkpt>
      <trkpt lat="43.83845" lon="6.5675">
        <ele>1230.3</ele>
        <time>2014-11-23T08:48:54Z</time>
      </trkpt>
      <trkpt lat="43.83862" lon="6.5675">
        <ele>1236.9</ele>
        <time>2014-11-23T08:49:27Z</time>
      </trkpt>
      <trkpt lat="43.8387" lon="6.56746">
        <ele>1238.1</ele>
        <time>2014-11-23T08:49:36Z</time>
      </trkpt>
      <trkpt lat="43.83879" lon="6.56752">
        <ele>1239.7</ele>
        <time>2014-11-23T08:49:48Z</time>
      </trkpt>
      <trkpt lat="43.83885" lon="6.56761">
        <ele>1241.6</ele>
        <time>2014-11-23T08:50:00Z</time>
      </trkpt>
      <trkpt lat="43.83904" lon="6.56766">
        <ele>1246.3</ele>
        <time>2014-11-23T08:50:26Z</time>
      </trkpt>
      <trkpt lat="43.83914" lon="6.56768">
        <ele>1247.1</ele>
        <time>2014-11-23T08:50:34Z</time>
      </trkpt>
      <trkpt lat="43.83922" lon="6.56773">
        <ele>1248.7</ele>
        <time>2014-11-23T08:50:43Z</time>
      </trkpt>
      <trkpt lat="43.83931" lon="6.56776">
        <ele>1249.2</ele>
        <time>2014-11-23T08:50:51Z</time>
      </trkpt>
      <trkpt lat="43.83939" lon="6.56784">
        <ele>1250.4</ele>
        <time>2014-11-23T08:51:01Z</time>
      </trkpt>
      <trkpt lat="43.8395" lon="6.56802">
        <ele>1251.7</ele>
        <time>2014-11-23T08:51:17Z</time>
      </trkpt>
      <trkpt lat="43.83959" lon="6.56807">
        <ele>1253.9</ele>
        <time>2014-11-23T08:51:25Z</time>
      </trkpt>
      <trkpt lat="43.83967" lon="6.56813">
        <ele>1255.2</ele>
        <time>2014-11-23T08:51:35Z</time>
      </trkpt>
      <trkpt lat="43.83975" lon="6.5682">
        <ele>1257.2</ele>
        <time>2014-11-23T08:51:45Z</time>
      </trkpt>
      <trkpt lat="43.83981" lon="6.56831">
        <ele>1258.9</ele>
        <time>2014-11-23T08:51:55Z</time>
      </trkpt>
      <trkpt lat="43.8398" lon="6.56844">
        <ele>1262.3</ele>
        <time>2014-11-23T08:52:06Z</time>
      </trkpt>
      <trkpt lat="43.83985" lon="6.56871">
        <ele>1268.2</ele>
        <time>2014-11-23T08:52:40Z</time>
      </trkpt>
      <trkpt lat="43.83985" lon="6.56885">
        <ele>1270.7</ele>
        <time>2014-11-23T08:52:52Z</time>
      </trkpt>
      <trkpt lat="43.83981" lon="6.56898">
        <ele>1272.3</ele>
        <time>2014-11-23T08:53:00Z</time>
      </trkpt>
      <trkpt lat="43.8398" lon="6.56911">
        <ele>1274.2</ele>
        <time>2014-11-23T08:53:10Z</time>
      </trkpt>
      <trkpt lat="43.83995" lon="6.56926">
        <ele>1278.2</ele>
        <time>2014-11-23T08:53:33Z</time>
      </trkpt>
      <trkpt lat="43.83999" lon="6.56938">
        <ele>1280.5</ele>
        <time>2014-11-23T08:53:46Z</time>
      </trkpt>
      <trkpt lat="43.83998" lon="6.56951">
        <ele>1282.4</ele>
        <time>2014-11-23T08:53:55Z</time>
      </trkpt>
      <trkpt lat="43.84002" lon="6.56963">
        <ele>1284.4</ele>
        <time>2014-11-23T08:54:09Z</time>
      </trkpt>
      <trkpt lat="43.84003" lon="6.56977">
        <ele>1286.3</ele>
        <time>2014-11-23T08:54:19Z</time>
      </trkpt>
      <trkpt lat="43.84009" lon="6.57001">
        <ele>1292.1</ele>
        <time>2014-11-23T08:54:44Z</time>
      </trkpt>
      <trkpt lat="43.84013" lon="6.57013">
        <ele>1294</ele>
        <time>2014-11-23T08:54:55Z</time>
      </trkpt>
      <trkpt lat="43.84017" lon="6.57024">
        <ele>1295.7</ele>
        <time>2014-11-23T08:55:03Z</time>
      </trkpt>
      <trkpt lat="43.84016" lon="6.57037">
        <ele>1298.2</ele>
        <time>2014-11-23T08:55:16Z</time>
      </trkpt>
      <trkpt lat="43.84013" lon="6.57049">
        <ele>1300</ele>
        <time>2014-11-23T08:55:27Z</time>
      </trkpt>
      <trkpt lat="43.84017" lon="6.57074">
        <ele>1305.6</ele>
        <time>2014-11-23T08:55:56Z</time>
      </trkpt>
      <trkpt lat="43.84017" lon="6.57088">
        <ele>1307</ele>
        <time>2014-11-23T08:56:06Z</time>
      </trkpt>
      <trkpt lat="43.84012" lon="6.57099">
        <ele>1307.5</ele>
        <time>2014-11-23T08:56:19Z</time>
      </trkpt>
      <trkpt lat="43.84004" lon="6.57107">
        <ele>1308.1</ele>
        <time>2014-11-23T08:56:29Z</time>
      </trkpt>
      <trkpt lat="43.84009" lon="6.57133">
        <ele>1311.7</ele>
        <time>2014-11-23T08:57:21Z</time>
      </trkpt>
      <trkpt lat="43.84011" lon="6.57145">
        <ele>1314.3</ele>
        <time>2014-11-23T08:57:37Z</time>
      </trkpt>
      <trkpt lat="43.84017" lon="6.57171">
        <ele>1318.9</ele>
        <time>2014-11-23T08:58:04Z</time>
      </trkpt>
      <trkpt lat="43.8402" lon="6.57183">
        <ele>1320.2</ele>
        <time>2014-11-23T08:58:13Z</time>
      </trkpt>
      <trkpt lat="43.84021" lon="6.57196">
        <ele>1321</ele>
        <time>2014-11-23T08:58:21Z</time>
      </trkpt>
      <trkpt lat="43.84019" lon="6.57209">
        <ele>1322.1</ele>
        <time>2014-11-23T08:58:31Z</time>
      </trkpt>
      <trkpt lat="43.84021" lon="6.57222">
        <ele>1322.9</ele>
        <time>2014-11-23T08:58:39Z</time>
      </trkpt>
      <trkpt lat="43.84024" lon="6.57247">
        <ele>1324.3</ele>
        <time>2014-11-23T08:58:57Z</time>
      </trkpt>
      <trkpt lat="43.84023" lon="6.5726">
        <ele>1324.1</ele>
        <time>2014-11-23T08:59:05Z</time>
      </trkpt>
      <trkpt lat="43.84025" lon="6.57273">
        <ele>1324.5</ele>
        <time>2014-11-23T08:59:13Z</time>
      </trkpt>
      <trkpt lat="43.84032" lon="6.57283">
        <ele>1325.5</ele>
        <time>2014-11-23T08:59:19Z</time>
      </trkpt>
      <trkpt lat="43.84034" lon="6.57297">
        <ele>1326.6</ele>
        <time>2014-11-23T08:59:29Z</time>
      </trkpt>
      <trkpt lat="43.84039" lon="6.57309">
        <ele>1326.5</ele>
        <time>2014-11-23T08:59:35Z</time>
      </trkpt>
      <trkpt lat="43.84041" lon="6.57322">
        <ele>1327.1</ele>
        <time>2014-11-23T08:59:42Z</time>
      </trkpt>
      <trkpt lat="43.84036" lon="6.57347">
        <ele>1326.9</ele>
        <time>2014-11-23T09:00:02Z</time>
      </trkpt>
      <trkpt lat="43.8404" lon="6.5736">
        <ele>1328.4</ele>
        <time>2014-11-23T09:00:11Z</time>
      </trkpt>
      <trkpt lat="43.84036" lon="6.57374">
        <ele>1327.9</ele>
        <time>2014-11-23T09:00:18Z</time>
      </trkpt>
      <trkpt lat="43.84035" lon="6.57387">
        <ele>1326.8</ele>
        <time>2014-11-23T09:00:28Z</time>
      </trkpt>
      <trkpt lat="43.84037" lon="6.57401">
        <ele>1327.2</ele>
        <time>2014-11-23T09:00:36Z</time>
      </trkpt>
      <trkpt lat="43.84044" lon="6.57409">
        <ele>1328.4</ele>
        <time>2014-11-23T09:00:44Z</time>
      </trkpt>
      <trkpt lat="43.84052" lon="6.57434">
        <ele>1330.8</ele>
        <time>2014-11-23T09:01:02Z</time>
      </trkpt>
      <trkpt lat="43.84056" lon="6.57446">
        <ele>1331.2</ele>
        <time>2014-11-23T09:01:11Z</time>
      </trkpt>
      <trkpt lat="43.84061" lon="6.57457">
        <ele>1331.8</ele>
        <time>2014-11-23T09:01:21Z</time>
      </trkpt>
      <trkpt lat="43.84066" lon="6.5747">
        <ele>1332.5</ele>
        <time>2014-11-23T09:01:30Z</time>
      </trkpt>
      <trkpt lat="43.84064" lon="6.57484">
        <ele>1333.3</ele>
        <time>2014-11-23T09:01:38Z</time>
      </trkpt>
      <trkpt lat="43.84067" lon="6.57496">
        <ele>1332.6</ele>
        <time>2014-11-23T09:01:45Z</time>
      </trkpt>
      <trkpt lat="43.8407" lon="6.57522">
        <ele>1333</ele>
        <time>2014-11-23T09:02:05Z</time>
      </trkpt>
      <trkpt lat="43.84075" lon="6.57534">
        <ele>1335.3</ele>
        <time>2014-11-23T09:02:14Z</time>
      </trkpt>
      <trkpt lat="43.84077" lon="6.57547">
        <ele>1335</ele>
        <time>2014-11-23T09:02:24Z</time>
      </trkpt>
      <trkpt lat="43.84082" lon="6.57559">
        <ele>1336.5</ele>
        <time>2014-11-23T09:02:33Z</time>
      </trkpt>
      <trkpt lat="43.84083" lon="6.57572">
        <ele>1337.6</ele>
        <time>2014-11-23T09:02:42Z</time>
      </trkpt>
      <trkpt lat="43.84082" lon="6.57585">
        <ele>1338.5</ele>
        <time>2014-11-23T09:02:50Z</time>
      </trkpt>
      <trkpt lat="43.84081" lon="6.57612">
        <ele>1336.5</ele>
        <time>2014-11-23T09:03:11Z</time>
      </trkpt>
      <trkpt lat="43.8408" lon="6.57625">
        <ele>1335.7</ele>
        <time>2014-11-23T09:03:20Z</time>
      </trkpt>
      <trkpt lat="43.84083" lon="6.57637">
        <ele>1336</ele>
        <time>2014-11-23T09:03:28Z</time>
      </trkpt>
      <trkpt lat="43.84084" lon="6.57651">
        <ele>1336.1</ele>
        <time>2014-11-23T09:03:38Z</time>
      </trkpt>
      <trkpt lat="43.8408" lon="6.57662">
        <ele>1333.9</ele>
        <time>2014-11-23T09:03:47Z</time>
      </trkpt>
      <trkpt lat="43.84082" lon="6.57675">
        <ele>1333.2</ele>
        <time>2014-11-23T09:03:59Z</time>
      </trkpt>
      <trkpt lat="43.8408" lon="6.57702">
        <ele>1332</ele>
        <time>2014-11-23T09:04:15Z</time>
      </trkpt>
      <trkpt lat="43.84081" lon="6.57715">
        <ele>1334</ele>
        <time>2014-11-23T09:04:25Z</time>
      </trkpt>
      <trkpt lat="43.84078" lon="6.57727">
        <ele>1333.2</ele>
        <time>2014-11-23T09:04:33Z</time>
      </trkpt>
      <trkpt lat="43.84075" lon="6.57741">
        <ele>1332.6</ele>
        <time>2014-11-23T09:04:42Z</time>
      </trkpt>
      <trkpt lat="43.84072" lon="6.57753">
        <ele>1330.6</ele>
        <time>2014-11-23T09:04:50Z</time>
      </trkpt>
      <trkpt lat="43.84071" lon="6.57766">
        <ele>1328.6</ele>
        <time>2014-11-23T09:05:04Z</time>
      </trkpt>
      <trkpt lat="43.8407" lon="6.5779">
        <ele>1327.6</ele>
        <time>2014-11-23T09:05:22Z</time>
      </trkpt>
      <trkpt lat="43.84069" lon="6.57803">
        <ele>1328.3</ele>
        <time>2014-11-23T09:05:39Z</time>
      </trkpt>
      <trkpt lat="43.84069" lon="6.57816">
        <ele>1328.4</ele>
        <time>2014-11-23T09:05:47Z</time>
      </trkpt>
      <trkpt lat="43.84065" lon="6.57828">
        <ele>1327.6</ele>
        <time>2014-11-23T09:05:56Z</time>
      </trkpt>
      <trkpt lat="43.8406" lon="6.57841">
        <ele>1325.2</ele>
        <time>2014-11-23T09:06:05Z</time>
      </trkpt>
      <trkpt lat="43.84059" lon="6.57867">
        <ele>1324.2</ele>
        <time>2014-11-23T09:06:25Z</time>
      </trkpt>
      <trkpt lat="43.8406" lon="6.5788">
        <ele>1323.6</ele>
        <time>2014-11-23T09:06:34Z</time>
      </trkpt>
      <trkpt lat="43.84062" lon="6.57893">
        <ele>1322.7</ele>
        <time>2014-11-23T09:06:42Z</time>
      </trkpt>
      <trkpt lat="43.84058" lon="6.57906">
        <ele>1321.9</ele>
        <time>2014-11-23T09:06:51Z</time>
      </trkpt>
      <trkpt lat="43.84057" lon="6.57919">
        <ele>1320.7</ele>
        <time>2014-11-23T09:07:00Z</time>
      </trkpt>
      <trkpt lat="43.84053" lon="6.5793">
        <ele>1316.5</ele>
        <time>2014-11-23T09:07:19Z</time>
      </trkpt>
      <trkpt lat="43.84033" lon="6.57936">
        <ele>1312</ele>
        <time>2014-11-23T09:07:38Z</time>
      </trkpt>
      <trkpt lat="43.84024" lon="6.57939">
        <ele>1310.9</ele>
        <time>2014-11-23T09:07:48Z</time>
      </trkpt>
      <trkpt lat="43.84015" lon="6.57938">
        <ele>1306.8</ele>
        <time>2014-11-23T09:08:04Z</time>
      </trkpt>
      <trkpt lat="43.84007" lon="6.57945">
        <ele>1309.3</ele>
        <time>2014-11-23T09:08:21Z</time>
      </trkpt>
      <trkpt lat="43.84003" lon="6.57955">
        <ele>1317.5</ele>
        <time>2014-11-23T09:10:02Z</time>
      </trkpt>
      <trkpt lat="43.84007" lon="6.57979">
        <ele>1321.5</ele>
        <time>2014-11-23T09:10:24Z</time>
      </trkpt>
      <trkpt lat="43.84007" lon="6.57992">
        <ele>1323.5</ele>
        <time>2014-11-23T09:10:35Z</time>
      </trkpt>
      <trkpt lat="43.84008" lon="6.58004">
        <ele>1324.7</ele>
        <time>2014-11-23T09:10:46Z</time>
      </trkpt>
      <trkpt lat="43.84013" lon="6.58015">
        <ele>1326.6</ele>
        <time>2014-11-23T09:10:58Z</time>
      </trkpt>
      <trkpt lat="43.84014" lon="6.58029">
        <ele>1328.6</ele>
        <time>2014-11-23T09:11:13Z</time>
      </trkpt>
      <trkpt lat="43.84015" lon="6.58054">
        <ele>1333.3</ele>
        <time>2014-11-23T09:11:39Z</time>
      </trkpt>
      <trkpt lat="43.84019" lon="6.58066">
        <ele>1335.5</ele>
        <time>2014-11-23T09:11:51Z</time>
      </trkpt>
      <trkpt lat="43.84024" lon="6.58078">
        <ele>1337</ele>
        <time>2014-11-23T09:12:04Z</time>
      </trkpt>
      <trkpt lat="43.84029" lon="6.58088">
        <ele>1337.8</ele>
        <time>2014-11-23T09:12:12Z</time>
      </trkpt>
      <trkpt lat="43.84034" lon="6.58098">
        <ele>1338.8</ele>
        <time>2014-11-23T09:12:21Z</time>
      </trkpt>
      <trkpt lat="43.84044" lon="6.58121">
        <ele>1339.7</ele>
        <time>2014-11-23T09:12:38Z</time>
      </trkpt>
      <trkpt lat="43.84046" lon="6.58133">
        <ele>1340.4</ele>
        <time>2014-11-23T09:12:44Z</time>
      </trkpt>
      <trkpt lat="43.84047" lon="6.58146">
        <ele>1342.3</ele>
        <time>2014-11-23T09:12:53Z</time>
      </trkpt>
      <trkpt lat="43.84046" lon="6.58159">
        <ele>1344.1</ele>
        <time>2014-11-23T09:13:03Z</time>
      </trkpt>
      <trkpt lat="43.84049" lon="6.58171">
        <ele>1345.3</ele>
        <time>2014-11-23T09:13:13Z</time>
      </trkpt>
      <trkpt lat="43.84055" lon="6.58183">
        <ele>1345.9</ele>
        <time>2014-11-23T09:13:22Z</time>
      </trkpt>
      <trkpt lat="43.8406" lon="6.58208">
        <ele>1348</ele>
        <time>2014-11-23T09:13:41Z</time>
      </trkpt>
      <trkpt lat="43.84063" lon="6.5822">
        <ele>1349.5</ele>
        <time>2014-11-23T09:13:50Z</time>
      </trkpt>
      <trkpt lat="43.8406" lon="6.58233">
        <ele>1350.8</ele>
        <time>2014-11-23T09:13:59Z</time>
      </trkpt>
      <trkpt lat="43.8406" lon="6.58245">
        <ele>1353.4</ele>
        <time>2014-11-23T09:14:12Z</time>
      </trkpt>
      <trkpt lat="43.84061" lon="6.58259">
        <ele>1354.8</ele>
        <time>2014-11-23T09:14:23Z</time>
      </trkpt>
      <trkpt lat="43.84056" lon="6.58285">
        <ele>1357.4</ele>
        <time>2014-11-23T09:14:40Z</time>
      </trkpt>
      <trkpt lat="43.84061" lon="6.58297">
        <ele>1358.6</ele>
        <time>2014-11-23T09:14:51Z</time>
      </trkpt>
      <trkpt lat="43.84058" lon="6.58309">
        <ele>1361</ele>
        <time>2014-11-23T09:15:01Z</time>
      </trkpt>
      <trkpt lat="43.84052" lon="6.5832">
        <ele>1362.3</ele>
        <time>2014-11-23T09:15:09Z</time>
      </trkpt>
      <trkpt lat="43.8405" lon="6.58333">
        <ele>1363.4</ele>
        <time>2014-11-23T09:15:17Z</time>
      </trkpt>
      <trkpt lat="43.8405" lon="6.58346">
        <ele>1364.7</ele>
        <time>2014-11-23T09:15:30Z</time>
      </trkpt>
      <trkpt lat="43.8405" lon="6.58372">
        <ele>1367.4</ele>
        <time>2014-11-23T09:15:52Z</time>
      </trkpt>
      <trkpt lat="43.84054" lon="6.58385">
        <ele>1367.5</ele>
        <time>2014-11-23T09:16:01Z</time>
      </trkpt>
      <trkpt lat="43.84056" lon="6.58398">
        <ele>1367.1</ele>
        <time>2014-11-23T09:16:11Z</time>
      </trkpt>
      <trkpt lat="43.84061" lon="6.58409">
        <ele>1368.1</ele>
        <time>2014-11-23T09:16:21Z</time>
      </trkpt>
      <trkpt lat="43.84061" lon="6.58422">
        <ele>1368.4</ele>
        <time>2014-11-23T09:16:28Z</time>
      </trkpt>
      <trkpt lat="43.84063" lon="6.58434">
        <ele>1370</ele>
        <time>2014-11-23T09:16:37Z</time>
      </trkpt>
      <trkpt lat="43.84078" lon="6.58453">
        <ele>1370.1</ele>
        <time>2014-11-23T09:16:52Z</time>
      </trkpt>
      <trkpt lat="43.84082" lon="6.58464">
        <ele>1369.9</ele>
        <time>2014-11-23T09:16:59Z</time>
      </trkpt>
      <trkpt lat="43.84081" lon="6.58476">
        <ele>1370.7</ele>
        <time>2014-11-23T09:17:08Z</time>
      </trkpt>
      <trkpt lat="43.84083" lon="6.58489">
        <ele>1372.6</ele>
        <time>2014-11-23T09:17:17Z</time>
      </trkpt>
      <trkpt lat="43.84084" lon="6.58501">
        <ele>1374</ele>
        <time>2014-11-23T09:17:28Z</time>
      </trkpt>
      <trkpt lat="43.84087" lon="6.58513">
        <ele>1376.4</ele>
        <time>2014-11-23T09:17:40Z</time>
      </trkpt>
      <trkpt lat="43.84096" lon="6.58537">
        <ele>1378.9</ele>
        <time>2014-11-23T09:18:00Z</time>
      </trkpt>
      <trkpt lat="43.84101" lon="6.58548">
        <ele>1380.2</ele>
        <time>2014-11-23T09:18:07Z</time>
      </trkpt>
      <trkpt lat="43.84103" lon="6.5856">
        <ele>1381.3</ele>
        <time>2014-11-23T09:18:16Z</time>
      </trkpt>
      <trkpt lat="43.84103" lon="6.58573">
        <ele>1382.7</ele>
        <time>2014-11-23T09:18:26Z</time>
      </trkpt>
      <trkpt lat="43.84106" lon="6.58586">
        <ele>1383.9</ele>
        <time>2014-11-23T09:18:38Z</time>
      </trkpt>
      <trkpt lat="43.8411" lon="6.58598">
        <ele>1384.9</ele>
        <time>2014-11-23T09:18:47Z</time>
      </trkpt>
      <trkpt lat="43.8412" lon="6.58617">
        <ele>1384.4</ele>
        <time>2014-11-23T09:19:07Z</time>
      </trkpt>
      <trkpt lat="43.84129" lon="6.58621">
        <ele>1386.7</ele>
        <time>2014-11-23T09:19:24Z</time>
      </trkpt>
      <trkpt lat="43.84133" lon="6.58634">
        <ele>1388.9</ele>
        <time>2014-11-23T09:19:34Z</time>
      </trkpt>
      <trkpt lat="43.84137" lon="6.58646">
        <ele>1389.8</ele>
        <time>2014-11-23T09:19:43Z</time>
      </trkpt>
      <trkpt lat="43.84142" lon="6.58659">
        <ele>1391</ele>
        <time>2014-11-23T09:19:50Z</time>
      </trkpt>
      <trkpt lat="43.84146" lon="6.58683">
        <ele>1395.7</ele>
        <time>2014-11-23T09:20:17Z</time>
      </trkpt>
      <trkpt lat="43.84144" lon="6.58696">
        <ele>1396</ele>
        <time>2014-11-23T09:22:01Z</time>
      </trkpt>
      <trkpt lat="43.84152" lon="6.58721">
        <ele>1401.1</ele>
        <time>2014-11-23T09:22:22Z</time>
      </trkpt>
      <trkpt lat="43.84153" lon="6.58733">
        <ele>1403.2</ele>
        <time>2014-11-23T09:22:33Z</time>
      </trkpt>
      <trkpt lat="43.84153" lon="6.58747">
        <ele>1406.4</ele>
        <time>2014-11-23T09:22:47Z</time>
      </trkpt>
      <trkpt lat="43.84151" lon="6.58759">
        <ele>1408.8</ele>
        <time>2014-11-23T09:22:59Z</time>
      </trkpt>
      <trkpt lat="43.84147" lon="6.58772">
        <ele>1410.8</ele>
        <time>2014-11-23T09:23:11Z</time>
      </trkpt>
      <trkpt lat="43.84149" lon="6.58798">
        <ele>1414.4</ele>
        <time>2014-11-23T09:23:33Z</time>
      </trkpt>
      <trkpt lat="43.84146" lon="6.58811">
        <ele>1416.3</ele>
        <time>2014-11-23T09:23:46Z</time>
      </trkpt>
      <trkpt lat="43.84147" lon="6.58824">
        <ele>1418.3</ele>
        <time>2014-11-23T09:23:56Z</time>
      </trkpt>
      <trkpt lat="43.84153" lon="6.58833">
        <ele>1421.2</ele>
        <time>2014-11-23T09:24:18Z</time>
      </trkpt>
      <trkpt lat="43.84164" lon="6.58854">
        <ele>1424.8</ele>
        <time>2014-11-23T09:24:39Z</time>
      </trkpt>
      <trkpt lat="43.8417" lon="6.58863">
        <ele>1426.2</ele>
        <time>2014-11-23T09:24:48Z</time>
      </trkpt>
      <trkpt lat="43.8417" lon="6.58876">
        <ele>1428.3</ele>
        <time>2014-11-23T09:25:02Z</time>
      </trkpt>
      <trkpt lat="43.84177" lon="6.58884">
        <ele>1430.3</ele>
        <time>2014-11-23T09:25:14Z</time>
      </trkpt>
      <trkpt lat="43.84181" lon="6.58896">
        <ele>1432.3</ele>
        <time>2014-11-23T09:25:25Z</time>
      </trkpt>
      <trkpt lat="43.84191" lon="6.58919">
        <ele>1435</ele>
        <time>2014-11-23T09:25:43Z</time>
      </trkpt>
      <trkpt lat="43.84196" lon="6.5893">
        <ele>1436.3</ele>
        <time>2014-11-23T09:25:53Z</time>
      </trkpt>
      <trkpt lat="43.84198" lon="6.58945">
        <ele>1437.4</ele>
        <time>2014-11-23T09:26:01Z</time>
      </trkpt>
      <trkpt lat="43.84203" lon="6.58956">
        <ele>1437.8</ele>
        <time>2014-11-23T09:26:11Z</time>
      </trkpt>
      <trkpt lat="43.84201" lon="6.58968">
        <ele>1439.2</ele>
        <time>2014-11-23T09:26:21Z</time>
      </trkpt>
      <trkpt lat="43.84201" lon="6.58981">
        <ele>1442.2</ele>
        <time>2014-11-23T09:26:34Z</time>
      </trkpt>
      <trkpt lat="43.84206" lon="6.59002">
        <ele>1445.5</ele>
        <time>2014-11-23T09:27:33Z</time>
      </trkpt>
      <trkpt lat="43.84208" lon="6.59014">
        <ele>1448.4</ele>
        <time>2014-11-23T09:27:49Z</time>
      </trkpt>
      <trkpt lat="43.84205" lon="6.59039">
        <ele>1454.5</ele>
        <time>2014-11-23T09:28:30Z</time>
      </trkpt>
      <trkpt lat="43.84203" lon="6.59051">
        <ele>1457.9</ele>
        <time>2014-11-23T09:28:45Z</time>
      </trkpt>
      <trkpt lat="43.842" lon="6.59064">
        <ele>1462.2</ele>
        <time>2014-11-23T09:29:16Z</time>
      </trkpt>
      <trkpt lat="43.84194" lon="6.59088">
        <ele>1468.9</ele>
        <time>2014-11-23T09:29:51Z</time>
      </trkpt>
      <trkpt lat="43.84188" lon="6.59102">
        <ele>1473.7</ele>
        <time>2014-11-23T09:30:21Z</time>
      </trkpt>
      <trkpt lat="43.84185" lon="6.59127">
        <ele>1480.5</ele>
        <time>2014-11-23T09:31:05Z</time>
      </trkpt>
      <trkpt lat="43.84186" lon="6.59139">
        <ele>1483.9</ele>
        <time>2014-11-23T09:31:25Z</time>
      </trkpt>
      <trkpt lat="43.8419" lon="6.59165">
        <ele>1491.2</ele>
        <time>2014-11-23T09:32:05Z</time>
      </trkpt>
      <trkpt lat="43.84194" lon="6.59176">
        <ele>1494.9</ele>
        <time>2014-11-23T09:32:36Z</time>
      </trkpt>
      <trkpt lat="43.84187" lon="6.592">
        <ele>1502.3</ele>
        <time>2014-11-23T09:33:19Z</time>
      </trkpt>
      <trkpt lat="43.8418" lon="6.59209">
        <ele>1504.6</ele>
        <time>2014-11-23T09:33:41Z</time>
      </trkpt>
      <trkpt lat="43.84172" lon="6.59232">
        <ele>1515</ele>
        <time>2014-11-23T09:34:56Z</time>
      </trkpt>
      <trkpt lat="43.84164" lon="6.59255">
        <ele>1522.1</ele>
        <time>2014-11-23T09:35:50Z</time>
      </trkpt>
      <trkpt lat="43.84166" lon="6.59268">
        <ele>1527.2</ele>
        <time>2014-11-23T09:36:24Z</time>
      </trkpt>
      <trkpt lat="43.84174" lon="6.5929">
        <ele>1532.2</ele>
        <time>2014-11-23T09:37:07Z</time>
      </trkpt>
      <trkpt lat="43.84182" lon="6.59299">
        <ele>1533.8</ele>
        <time>2014-11-23T09:37:16Z</time>
      </trkpt>
      <trkpt lat="43.84174" lon="6.59305">
        <ele>1537.2</ele>
        <time>2014-11-23T09:37:30Z</time>
      </trkpt>
      <trkpt lat="43.84172" lon="6.59322">
        <ele>1543.3</ele>
        <time>2014-11-23T09:37:58Z</time>
      </trkpt>
      <trkpt lat="43.84175" lon="6.59335">
        <ele>1545.9</ele>
        <time>2014-11-23T09:38:28Z</time>
      </trkpt>
      <trkpt lat="43.84173" lon="6.59347">
        <ele>1553</ele>
        <time>2014-11-23T09:38:48Z</time>
      </trkpt>
      <trkpt lat="43.8418" lon="6.59372">
        <ele>1556.7</ele>
        <time>2014-11-23T09:39:19Z</time>
      </trkpt>
      <trkpt lat="43.84186" lon="6.59382">
        <ele>1559.4</ele>
        <time>2014-11-23T09:39:35Z</time>
      </trkpt>
      <trkpt lat="43.8419" lon="6.59393">
        <ele>1562.5</ele>
        <time>2014-11-23T09:39:50Z</time>
      </trkpt>
      <trkpt lat="43.84199" lon="6.59416">
        <ele>1569.5</ele>
        <time>2014-11-23T09:40:26Z</time>
      </trkpt>
      <trkpt lat="43.84203" lon="6.59427">
        <ele>1573.7</ele>
        <time>2014-11-23T09:40:50Z</time>
      </trkpt>
      <trkpt lat="43.84207" lon="6.59438">
        <ele>1576.3</ele>
        <time>2014-11-23T09:41:12Z</time>
      </trkpt>
      <trkpt lat="43.84216" lon="6.59461">
        <ele>1583</ele>
        <time>2014-11-23T09:41:43Z</time>
      </trkpt>
      <trkpt lat="43.84224" lon="6.59469">
        <ele>1586.5</ele>
        <time>2014-11-23T09:42:06Z</time>
      </trkpt>
      <trkpt lat="43.84227" lon="6.59481">
        <ele>1589.5</ele>
        <time>2014-11-23T09:42:23Z</time>
      </trkpt>
      <trkpt lat="43.84231" lon="6.59506">
        <ele>1598.1</ele>
        <time>2014-11-23T09:43:00Z</time>
      </trkpt>
      <trkpt lat="43.84231" lon="6.59519">
        <ele>1604.6</ele>
        <time>2014-11-23T09:43:31Z</time>
      </trkpt>
      <trkpt lat="43.84231" lon="6.59545">
        <ele>1615</ele>
        <time>2014-11-23T09:44:22Z</time>
      </trkpt>
      <trkpt lat="43.84231" lon="6.59558">
        <ele>1621.6</ele>
        <time>2014-11-23T09:44:58Z</time>
      </trkpt>
      <trkpt lat="43.84216" lon="6.59578">
        <ele>1629.3</ele>
        <time>2014-11-23T09:46:03Z</time>
      </trkpt>
      <trkpt lat="43.84218" lon="6.59604">
        <ele>1638.1</ele>
        <time>2014-11-23T09:46:39Z</time>
      </trkpt>
      <trkpt lat="43.84222" lon="6.59615">
        <ele>1641.5</ele>
        <time>2014-11-23T09:46:58Z</time>
      </trkpt>
      <trkpt lat="43.84225" lon="6.5963">
        <ele>1647.9</ele>
        <time>2014-11-23T09:47:32Z</time>
      </trkpt>
      <trkpt lat="43.84213" lon="6.59649">
        <ele>1653.6</ele>
        <time>2014-11-23T09:48:03Z</time>
      </trkpt>
      <trkpt lat="43.84208" lon="6.59661">
        <ele>1656.9</ele>
        <time>2014-11-23T09:48:19Z</time>
      </trkpt>
      <trkpt lat="43.84206" lon="6.59673">
        <ele>1660.1</ele>
        <time>2014-11-23T09:48:36Z</time>
      </trkpt>
      <trkpt lat="43.84208" lon="6.59699">
        <ele>1668.6</ele>
        <time>2014-11-23T09:49:16Z</time>
      </trkpt>
      <trkpt lat="43.84201" lon="6.59708">
        <ele>1671.9</ele>
        <time>2014-11-23T09:49:37Z</time>
      </trkpt>
      <trkpt lat="43.84195" lon="6.59732">
        <ele>1678</ele>
        <time>2014-11-23T09:50:07Z</time>
      </trkpt>
      <trkpt lat="43.84186" lon="6.59733">
        <ele>1680.3</ele>
        <time>2014-11-23T09:50:18Z</time>
      </trkpt>
      <trkpt lat="43.84179" lon="6.59741">
        <ele>1682.8</ele>
        <time>2014-11-23T09:50:32Z</time>
      </trkpt>
      <trkpt lat="43.84171" lon="6.59745">
        <ele>1684.4</ele>
        <time>2014-11-23T09:50:44Z</time>
      </trkpt>
      <trkpt lat="43.84161" lon="6.59767">
        <ele>1689.2</ele>
        <time>2014-11-23T09:51:09Z</time>
      </trkpt>
      <trkpt lat="43.84155" lon="6.59778">
        <ele>1691.1</ele>
        <time>2014-11-23T09:51:25Z</time>
      </trkpt>
      <trkpt lat="43.84152" lon="6.5979">
        <ele>1693</ele>
        <time>2014-11-23T09:51:39Z</time>
      </trkpt>
      <trkpt lat="43.84148" lon="6.59801">
        <ele>1695.4</ele>
        <time>2014-11-23T09:51:56Z</time>
      </trkpt>
      <trkpt lat="43.84144" lon="6.59827">
        <ele>1699.2</ele>
        <time>2014-11-23T09:52:35Z</time>
      </trkpt>
      <trkpt lat="43.8414" lon="6.59839">
        <ele>1700.7</ele>
        <time>2014-11-23T09:52:46Z</time>
      </trkpt>
      <trkpt lat="43.84138" lon="6.59851">
        <ele>1701.4</ele>
        <time>2014-11-23T09:53:00Z</time>
      </trkpt>
      <trkpt lat="43.84163" lon="6.59851">
        <ele>1715.6</ele>
        <time>2014-11-23T10:11:41Z</time>
      </trkpt>
      <trkpt lat="43.84172" lon="6.59855">
        <ele>1717.5</ele>
        <time>2014-11-23T10:11:54Z</time>
      </trkpt>
      <trkpt lat="43.84181" lon="6.59853">
        <ele>1719.3</ele>
        <time>2014-11-23T10:12:12Z</time>
      </trkpt>
      <trkpt lat="43.84191" lon="6.59853">
        <ele>1720.4</ele>
        <time>2014-11-23T10:12:26Z</time>
      </trkpt>
      <trkpt lat="43.84207" lon="6.59865">
        <ele>1724.8</ele>
        <time>2014-11-23T10:12:58Z</time>
      </trkpt>
      <trkpt lat="43.84216" lon="6.59868">
        <ele>1726.8</ele>
        <time>2014-11-23T10:13:10Z</time>
      </trkpt>
      <trkpt lat="43.84224" lon="6.59874">
        <ele>1729.1</ele>
        <time>2014-11-23T10:13:31Z</time>
      </trkpt>
      <trkpt lat="43.84234" lon="6.59895">
        <ele>1733.8</ele>
        <time>2014-11-23T10:14:00Z</time>
      </trkpt>
      <trkpt lat="43.84238" lon="6.59907">
        <ele>1737</ele>
        <time>2014-11-23T10:14:14Z</time>
      </trkpt>
      <trkpt lat="43.84244" lon="6.59916">
        <ele>1739.8</ele>
        <time>2014-11-23T10:14:29Z</time>
      </trkpt>
      <trkpt lat="43.8425" lon="6.59926">
        <ele>1743.7</ele>
        <time>2014-11-23T10:14:48Z</time>
      </trkpt>
      <trkpt lat="43.84268" lon="6.5992">
        <ele>1749</ele>
        <time>2014-11-23T10:15:21Z</time>
      </trkpt>
      <trkpt lat="43.84269" lon="6.59933">
        <ele>1751.4</ele>
        <time>2014-11-23T10:15:36Z</time>
      </trkpt>
      <trkpt lat="43.84271" lon="6.59946">
        <ele>1753.7</ele>
        <time>2014-11-23T10:15:51Z</time>
      </trkpt>
      <trkpt lat="43.84274" lon="6.59971">
        <ele>1757.9</ele>
        <time>2014-11-23T10:16:17Z</time>
      </trkpt>
      <trkpt lat="43.84275" lon="6.59984">
        <ele>1761.3</ele>
        <time>2014-11-23T10:16:29Z</time>
      </trkpt>
      <trkpt lat="43.84278" lon="6.59996">
        <ele>1764.5</ele>
        <time>2014-11-23T10:16:45Z</time>
      </trkpt>
      <trkpt lat="43.84279" lon="6.60009">
        <ele>1767.3</ele>
        <time>2014-11-23T10:17:04Z</time>
      </trkpt>
      <trkpt lat="43.84287" lon="6.60031">
        <ele>1774.6</ele>
        <time>2014-11-23T10:17:46Z</time>
      </trkpt>
      <trkpt lat="43.84289" lon="6.60044">
        <ele>1777.9</ele>
        <time>2014-11-23T10:18:05Z</time>
      </trkpt>
      <trkpt lat="43.8429" lon="6.60068">
        <ele>1781.1</ele>
        <time>2014-11-23T10:18:30Z</time>
      </trkpt>
      <trkpt lat="43.84293" lon="6.6008">
        <ele>1784.7</ele>
        <time>2014-11-23T10:18:50Z</time>
      </trkpt>
      <trkpt lat="43.84294" lon="6.60092">
        <ele>1787.3</ele>
        <time>2014-11-23T10:19:05Z</time>
      </trkpt>
      <trkpt lat="43.84297" lon="6.60105">
        <ele>1788.1</ele>
        <time>2014-11-23T10:19:17Z</time>
      </trkpt>
      <trkpt lat="43.843" lon="6.60131">
        <ele>1791.3</ele>
        <time>2014-11-23T10:19:44Z</time>
      </trkpt>
      <trkpt lat="43.84301" lon="6.60143">
        <ele>1793.1</ele>
        <time>2014-11-23T10:19:55Z</time>
      </trkpt>
      <trkpt lat="43.84303" lon="6.60156">
        <ele>1794.2</ele>
        <time>2014-11-23T10:20:07Z</time>
      </trkpt>
      <trkpt lat="43.84307" lon="6.60167">
        <ele>1796.1</ele>
        <time>2014-11-23T10:20:22Z</time>
      </trkpt>
      <trkpt lat="43.84314" lon="6.60191">
        <ele>1800.3</ele>
        <time>2014-11-23T10:20:44Z</time>
      </trkpt>
      <trkpt lat="43.84318" lon="6.60202">
        <ele>1802</ele>
        <time>2014-11-23T10:20:55Z</time>
      </trkpt>
      <trkpt lat="43.84319" lon="6.60215">
        <ele>1802.4</ele>
        <time>2014-11-23T10:21:04Z</time>
      </trkpt>
      <trkpt lat="43.84324" lon="6.60228">
        <ele>1804.2</ele>
        <time>2014-11-23T10:21:14Z</time>
      </trkpt>
      <trkpt lat="43.84328" lon="6.60239">
        <ele>1805.6</ele>
        <time>2014-11-23T10:21:25Z</time>
      </trkpt>
      <trkpt lat="43.84332" lon="6.60263">
        <ele>1808.7</ele>
        <time>2014-11-23T10:21:49Z</time>
      </trkpt>
      <trkpt lat="43.84336" lon="6.60275">
        <ele>1810.3</ele>
        <time>2014-11-23T10:22:02Z</time>
      </trkpt>
      <trkpt lat="43.84336" lon="6.60288">
        <ele>1811.4</ele>
        <time>2014-11-23T10:22:13Z</time>
      </trkpt>
      <trkpt lat="43.84342" lon="6.60298">
        <ele>1813.1</ele>
        <time>2014-11-23T10:22:25Z</time>
      </trkpt>
      <trkpt lat="43.84347" lon="6.6031">
        <ele>1814.5</ele>
        <time>2014-11-23T10:22:36Z</time>
      </trkpt>
      <trkpt lat="43.84356" lon="6.60332">
        <ele>1820.7</ele>
        <time>2014-11-23T10:23:10Z</time>
      </trkpt>
      <trkpt lat="43.84359" lon="6.60344">
        <ele>1821.9</ele>
        <time>2014-11-23T10:23:24Z</time>
      </trkpt>
      <trkpt lat="43.84365" lon="6.60354">
        <ele>1824.7</ele>
        <time>2014-11-23T10:23:42Z</time>
      </trkpt>
      <trkpt lat="43.84371" lon="6.60377">
        <ele>1830.2</ele>
        <time>2014-11-23T10:24:16Z</time>
      </trkpt>
      <trkpt lat="43.8437" lon="6.60391">
        <ele>1830.9</ele>
        <time>2014-11-23T10:24:30Z</time>
      </trkpt>
      <trkpt lat="43.84379" lon="6.60389">
        <ele>1834.8</ele>
        <time>2014-11-23T10:24:55Z</time>
      </trkpt>
      <trkpt lat="43.84395" lon="6.60377">
        <ele>1840.5</ele>
        <time>2014-11-23T10:25:28Z</time>
      </trkpt>
      <trkpt lat="43.84404" lon="6.60373">
        <ele>1845.7</ele>
        <time>2014-11-23T10:25:53Z</time>
      </trkpt>
      <trkpt lat="43.84406" lon="6.6036">
        <ele>1848.8</ele>
        <time>2014-11-23T10:26:10Z</time>
      </trkpt>
      <trkpt lat="43.84409" lon="6.60335">
        <ele>1852.1</ele>
        <time>2014-11-23T10:26:36Z</time>
      </trkpt>
      <trkpt lat="43.8441" lon="6.60322">
        <ele>1854.6</ele>
        <time>2014-11-23T10:26:48Z</time>
      </trkpt>
      <trkpt lat="43.84413" lon="6.6031">
        <ele>1856.6</ele>
        <time>2014-11-23T10:27:01Z</time>
      </trkpt>
      <trkpt lat="43.84421" lon="6.60303">
        <ele>1858.9</ele>
        <time>2014-11-23T10:27:13Z</time>
      </trkpt>
      <trkpt lat="43.84439" lon="6.60294">
        <ele>1861.4</ele>
        <time>2014-11-23T10:27:34Z</time>
      </trkpt>
      <trkpt lat="43.8444" lon="6.60281">
        <ele>1863.7</ele>
        <time>2014-11-23T10:27:47Z</time>
      </trkpt>
      <trkpt lat="43.84444" lon="6.60268">
        <ele>1864.7</ele>
        <time>2014-11-23T10:27:57Z</time>
      </trkpt>
      <trkpt lat="43.84446" lon="6.60255">
        <ele>1866</ele>
        <time>2014-11-23T10:28:08Z</time>
      </trkpt>
      <trkpt lat="43.84452" lon="6.60244">
        <ele>1867.6</ele>
        <time>2014-11-23T10:28:18Z</time>
      </trkpt>
      <trkpt lat="43.84461" lon="6.60223">
        <ele>1869.2</ele>
        <time>2014-11-23T10:28:36Z</time>
      </trkpt>
      <trkpt lat="43.84471" lon="6.60219">
        <ele>1870</ele>
        <time>2014-11-23T10:28:45Z</time>
      </trkpt>
      <trkpt lat="43.8448" lon="6.60219">
        <ele>1871.7</ele>
        <time>2014-11-23T10:31:10Z</time>
      </trkpt>
      <trkpt lat="43.84467" lon="6.60185">
        <ele>1880.5</ele>
        <time>2014-11-23T10:46:54Z</time>
      </trkpt>
      <trkpt lat="43.84464" lon="6.60173">
        <ele>1878.8</ele>
        <time>2014-11-23T10:47:07Z</time>
      </trkpt>
      <trkpt lat="43.8446" lon="6.60161">
        <ele>1877.4</ele>
        <time>2014-11-23T10:47:19Z</time>
      </trkpt>
      <trkpt lat="43.84465" lon="6.60127">
        <ele>1882.5</ele>
        <time>2014-11-23T11:49:34Z</time>
      </trkpt>
      <trkpt lat="43.84468" lon="6.60115">
        <ele>1879.3</ele>
        <time>2014-11-23T11:49:55Z</time>
      </trkpt>
      <trkpt lat="43.84473" lon="6.60103">
        <ele>1877</ele>
        <time>2014-11-23T11:50:10Z</time>
      </trkpt>
      <trkpt lat="43.84479" lon="6.60078">
        <ele>1873.7</ele>
        <time>2014-11-23T11:50:30Z</time>
      </trkpt>
      <trkpt lat="43.84484" lon="6.60067">
        <ele>1873.2</ele>
        <time>2014-11-23T11:50:40Z</time>
      </trkpt>
      <trkpt lat="43.84485" lon="6.60054">
        <ele>1871.7</ele>
        <time>2014-11-23T11:50:50Z</time>
      </trkpt>
      <trkpt lat="43.84486" lon="6.60041">
        <ele>1870.2</ele>
        <time>2014-11-23T11:51:00Z</time>
      </trkpt>
      <trkpt lat="43.84484" lon="6.60028">
        <ele>1867.6</ele>
        <time>2014-11-23T11:51:12Z</time>
      </trkpt>
      <trkpt lat="43.84473" lon="6.60007">
        <ele>1864.3</ele>
        <time>2014-11-23T11:51:45Z</time>
      </trkpt>
      <trkpt lat="43.84466" lon="6.59997">
        <ele>1861.2</ele>
        <time>2014-11-23T11:51:55Z</time>
      </trkpt>
      <trkpt lat="43.84458" lon="6.59993">
        <ele>1858.6</ele>
        <time>2014-11-23T11:52:10Z</time>
      </trkpt>
      <trkpt lat="43.84449" lon="6.59998">
        <ele>1855.1</ele>
        <time>2014-11-23T11:52:25Z</time>
      </trkpt>
      <trkpt lat="43.84432" lon="6.59989">
        <ele>1845.6</ele>
        <time>2014-11-23T11:52:58Z</time>
      </trkpt>
      <trkpt lat="43.84425" lon="6.59981">
        <ele>1842.7</ele>
        <time>2014-11-23T11:53:06Z</time>
      </trkpt>
      <trkpt lat="43.84415" lon="6.5998">
        <ele>1839.8</ele>
        <time>2014-11-23T11:53:16Z</time>
      </trkpt>
      <trkpt lat="43.84406" lon="6.59977">
        <ele>1837</ele>
        <time>2014-11-23T11:53:25Z</time>
      </trkpt>
      <trkpt lat="43.84403" lon="6.59966">
        <ele>1831</ele>
        <time>2014-11-23T11:53:51Z</time>
      </trkpt>
      <trkpt lat="43.84396" lon="6.59933">
        <ele>1815.3</ele>
        <time>2014-11-23T11:55:35Z</time>
      </trkpt>
      <trkpt lat="43.8439" lon="6.5991">
        <ele>1800.1</ele>
        <time>2014-11-23T11:56:26Z</time>
      </trkpt>
      <trkpt lat="43.84386" lon="6.59899">
        <ele>1795.4</ele>
        <time>2014-11-23T11:56:51Z</time>
      </trkpt>
      <trkpt lat="43.84374" lon="6.59878">
        <ele>1782.6</ele>
        <time>2014-11-23T11:57:41Z</time>
      </trkpt>
      <trkpt lat="43.84372" lon="6.59866">
        <ele>1776.9</ele>
        <time>2014-11-23T11:58:01Z</time>
      </trkpt>
      <trkpt lat="43.84362" lon="6.59844">
        <ele>1768.9</ele>
        <time>2014-11-23T11:58:27Z</time>
      </trkpt>
      <trkpt lat="43.84359" lon="6.59832">
        <ele>1765.5</ele>
        <time>2014-11-23T11:58:37Z</time>
      </trkpt>
      <trkpt lat="43.84358" lon="6.5982">
        <ele>1760.2</ele>
        <time>2014-11-23T11:58:50Z</time>
      </trkpt>
      <trkpt lat="43.84358" lon="6.59807">
        <ele>1753.2</ele>
        <time>2014-11-23T11:59:14Z</time>
      </trkpt>
      <trkpt lat="43.84384" lon="6.59802">
        <ele>1749.5</ele>
        <time>2014-11-23T12:05:53Z</time>
      </trkpt>
      <trkpt lat="43.84388" lon="6.59791">
        <ele>1750.3</ele>
        <time>2014-11-23T12:06:03Z</time>
      </trkpt>
      <trkpt lat="43.84396" lon="6.59782">
        <ele>1750.1</ele>
        <time>2014-11-23T12:06:14Z</time>
      </trkpt>
      <trkpt lat="43.84404" lon="6.59777">
        <ele>1750.2</ele>
        <time>2014-11-23T12:06:23Z</time>
      </trkpt>
      <trkpt lat="43.84412" lon="6.59769">
        <ele>1750.5</ele>
        <time>2014-11-23T12:06:34Z</time>
      </trkpt>
      <trkpt lat="43.84422" lon="6.5977">
        <ele>1749.6</ele>
        <time>2014-11-23T12:06:45Z</time>
      </trkpt>
      <trkpt lat="43.84441" lon="6.59765">
        <ele>1748.3</ele>
        <time>2014-11-23T12:07:09Z</time>
      </trkpt>
      <trkpt lat="43.8445" lon="6.59763">
        <ele>1747.2</ele>
        <time>2014-11-23T12:07:21Z</time>
      </trkpt>
      <trkpt lat="43.84457" lon="6.59755">
        <ele>1746.9</ele>
        <time>2014-11-23T12:07:38Z</time>
      </trkpt>
      <trkpt lat="43.84462" lon="6.59745">
        <ele>1745.1</ele>
        <time>2014-11-23T12:08:00Z</time>
      </trkpt>
      <trkpt lat="43.84477" lon="6.59729">
        <ele>1745.6</ele>
        <time>2014-11-23T12:08:21Z</time>
      </trkpt>
      <trkpt lat="43.84486" lon="6.59721">
        <ele>1746.3</ele>
        <time>2014-11-23T12:08:32Z</time>
      </trkpt>
      <trkpt lat="43.84494" lon="6.59716">
        <ele>1746.7</ele>
        <time>2014-11-23T12:08:42Z</time>
      </trkpt>
      <trkpt lat="43.84502" lon="6.59708">
        <ele>1746.3</ele>
        <time>2014-11-23T12:08:53Z</time>
      </trkpt>
      <trkpt lat="43.8451" lon="6.597">
        <ele>1746.2</ele>
        <time>2014-11-23T12:09:04Z</time>
      </trkpt>
      <trkpt lat="43.84516" lon="6.59676">
        <ele>1740.4</ele>
        <time>2014-11-23T12:09:42Z</time>
      </trkpt>
      <trkpt lat="43.8452" lon="6.59664">
        <ele>1737</ele>
        <time>2014-11-23T12:09:56Z</time>
      </trkpt>
      <trkpt lat="43.84522" lon="6.59651">
        <ele>1734.2</ele>
        <time>2014-11-23T12:10:07Z</time>
      </trkpt>
      <trkpt lat="43.8453" lon="6.59627">
        <ele>1729.5</ele>
        <time>2014-11-23T12:10:26Z</time>
      </trkpt>
      <trkpt lat="43.84537" lon="6.59618">
        <ele>1727.5</ele>
        <time>2014-11-23T12:10:36Z</time>
      </trkpt>
      <trkpt lat="43.84546" lon="6.59614">
        <ele>1724</ele>
        <time>2014-11-23T12:10:48Z</time>
      </trkpt>
      <trkpt lat="43.84549" lon="6.59601">
        <ele>1718.1</ele>
        <time>2014-11-23T12:11:04Z</time>
      </trkpt>
      <trkpt lat="43.84548" lon="6.59588">
        <ele>1715.1</ele>
        <time>2014-11-23T12:11:16Z</time>
      </trkpt>
      <trkpt lat="43.84546" lon="6.59561">
        <ele>1708.4</ele>
        <time>2014-11-23T12:11:39Z</time>
      </trkpt>
      <trkpt lat="43.84552" lon="6.5955">
        <ele>1705</ele>
        <time>2014-11-23T12:11:48Z</time>
      </trkpt>
      <trkpt lat="43.84559" lon="6.5954">
        <ele>1702.9</ele>
        <time>2014-11-23T12:11:56Z</time>
      </trkpt>
      <trkpt lat="43.84565" lon="6.59531">
        <ele>1701</ele>
        <time>2014-11-23T12:12:05Z</time>
      </trkpt>
      <trkpt lat="43.84573" lon="6.59526">
        <ele>1699.1</ele>
        <time>2014-11-23T12:12:13Z</time>
      </trkpt>
      <trkpt lat="43.84582" lon="6.5952">
        <ele>1697.8</ele>
        <time>2014-11-23T12:12:20Z</time>
      </trkpt>
      <trkpt lat="43.84598" lon="6.59506">
        <ele>1694.6</ele>
        <time>2014-11-23T12:12:35Z</time>
      </trkpt>
      <trkpt lat="43.84605" lon="6.59495">
        <ele>1694.3</ele>
        <time>2014-11-23T12:12:43Z</time>
      </trkpt>
      <trkpt lat="43.8461" lon="6.59485">
        <ele>1694</ele>
        <time>2014-11-23T12:12:50Z</time>
      </trkpt>
      <trkpt lat="43.84615" lon="6.59473">
        <ele>1695.8</ele>
        <time>2014-11-23T12:12:58Z</time>
      </trkpt>
      <trkpt lat="43.8462" lon="6.59461">
        <ele>1696.3</ele>
        <time>2014-11-23T12:13:07Z</time>
      </trkpt>
      <trkpt lat="43.84626" lon="6.5945">
        <ele>1697.7</ele>
        <time>2014-11-23T12:13:16Z</time>
      </trkpt>
      <trkpt lat="43.84632" lon="6.59439">
        <ele>1698.9</ele>
        <time>2014-11-23T12:13:26Z</time>
      </trkpt>
      <trkpt lat="43.84639" lon="6.59416">
        <ele>1701.9</ele>
        <time>2014-11-23T12:13:44Z</time>
      </trkpt>
      <trkpt lat="43.84644" lon="6.59405">
        <ele>1702.8</ele>
        <time>2014-11-23T12:13:53Z</time>
      </trkpt>
      <trkpt lat="43.84647" lon="6.59393">
        <ele>1703.6</ele>
        <time>2014-11-23T12:14:05Z</time>
      </trkpt>
      <trkpt lat="43.8465" lon="6.59381">
        <ele>1705.6</ele>
        <time>2014-11-23T12:14:14Z</time>
      </trkpt>
      <trkpt lat="43.84655" lon="6.5937">
        <ele>1705.6</ele>
        <time>2014-11-23T12:14:23Z</time>
      </trkpt>
      <trkpt lat="43.84657" lon="6.59358">
        <ele>1706.6</ele>
        <time>2014-11-23T12:14:33Z</time>
      </trkpt>
      <trkpt lat="43.84664" lon="6.59332">
        <ele>1706.4</ele>
        <time>2014-11-23T12:14:48Z</time>
      </trkpt>
      <trkpt lat="43.84671" lon="6.59323">
        <ele>1705.8</ele>
        <time>2014-11-23T12:14:55Z</time>
      </trkpt>
      <trkpt lat="43.84672" lon="6.5931">
        <ele>1704.3</ele>
        <time>2014-11-23T12:16:04Z</time>
      </trkpt>
      <trkpt lat="43.84676" lon="6.59285">
        <ele>1704.8</ele>
        <time>2014-11-23T12:16:21Z</time>
      </trkpt>
      <trkpt lat="43.84677" lon="6.59273">
        <ele>1705.7</ele>
        <time>2014-11-23T12:16:30Z</time>
      </trkpt>
      <trkpt lat="43.84676" lon="6.5926">
        <ele>1707</ele>
        <time>2014-11-23T12:16:40Z</time>
      </trkpt>
      <trkpt lat="43.84673" lon="6.59247">
        <ele>1708.2</ele>
        <time>2014-11-23T12:16:48Z</time>
      </trkpt>
      <trkpt lat="43.84671" lon="6.59234">
        <ele>1710.1</ele>
        <time>2014-11-23T12:16:58Z</time>
      </trkpt>
      <trkpt lat="43.84671" lon="6.5922">
        <ele>1712.5</ele>
        <time>2014-11-23T12:17:10Z</time>
      </trkpt>
      <trkpt lat="43.84661" lon="6.59199">
        <ele>1716.8</ele>
        <time>2014-11-23T12:17:32Z</time>
      </trkpt>
      <trkpt lat="43.84655" lon="6.59189">
        <ele>1718.1</ele>
        <time>2014-11-23T12:17:45Z</time>
      </trkpt>
      <trkpt lat="43.84646" lon="6.59183">
        <ele>1721.9</ele>
        <time>2014-11-23T12:18:02Z</time>
      </trkpt>
      <trkpt lat="43.84637" lon="6.59178">
        <ele>1722.4</ele>
        <time>2014-11-23T12:18:11Z</time>
      </trkpt>
      <trkpt lat="43.84624" lon="6.5916">
        <ele>1721.3</ele>
        <time>2014-11-23T12:18:30Z</time>
      </trkpt>
      <trkpt lat="43.84616" lon="6.59153">
        <ele>1719.3</ele>
        <time>2014-11-23T12:19:01Z</time>
      </trkpt>
      <trkpt lat="43.84607" lon="6.59156">
        <ele>1715.6</ele>
        <time>2014-11-23T12:19:24Z</time>
      </trkpt>
      <trkpt lat="43.84598" lon="6.59137">
        <ele>1707.1</ele>
        <time>2014-11-23T12:20:31Z</time>
      </trkpt>
      <trkpt lat="43.84602" lon="6.59099">
        <ele>1693.6</ele>
        <time>2014-11-23T12:22:04Z</time>
      </trkpt>
      <trkpt lat="43.84605" lon="6.59086">
        <ele>1689.9</ele>
        <time>2014-11-23T12:22:19Z</time>
      </trkpt>
      <trkpt lat="43.84607" lon="6.59073">
        <ele>1685.6</ele>
        <time>2014-11-23T12:22:43Z</time>
      </trkpt>
      <trkpt lat="43.84608" lon="6.59047">
        <ele>1685</ele>
        <time>2014-11-23T12:23:02Z</time>
      </trkpt>
      <trkpt lat="43.84608" lon="6.59034">
        <ele>1687.1</ele>
        <time>2014-11-23T12:23:12Z</time>
      </trkpt>
      <trkpt lat="43.84604" lon="6.59023">
        <ele>1687.2</ele>
        <time>2014-11-23T12:23:22Z</time>
      </trkpt>
      <trkpt lat="43.84605" lon="6.59009">
        <ele>1686.7</ele>
        <time>2014-11-23T12:23:34Z</time>
      </trkpt>
      <trkpt lat="43.84605" lon="6.58996">
        <ele>1685.7</ele>
        <time>2014-11-23T12:23:45Z</time>
      </trkpt>
      <trkpt lat="43.84611" lon="6.58971">
        <ele>1683.9</ele>
        <time>2014-11-23T12:24:03Z</time>
      </trkpt>
      <trkpt lat="43.84609" lon="6.58957">
        <ele>1682.2</ele>
        <time>2014-11-23T12:24:12Z</time>
      </trkpt>
      <trkpt lat="43.84608" lon="6.58945">
        <ele>1681.2</ele>
        <time>2014-11-23T12:24:21Z</time>
      </trkpt>
      <trkpt lat="43.84608" lon="6.58932">
        <ele>1680.2</ele>
        <time>2014-11-23T12:24:32Z</time>
      </trkpt>
      <trkpt lat="43.84603" lon="6.5892">
        <ele>1679.3</ele>
        <time>2014-11-23T12:24:52Z</time>
      </trkpt>
      <trkpt lat="43.84591" lon="6.58899">
        <ele>1677.8</ele>
        <time>2014-11-23T12:25:10Z</time>
      </trkpt>
      <trkpt lat="43.84585" lon="6.5889">
        <ele>1677.3</ele>
        <time>2014-11-23T12:25:18Z</time>
      </trkpt>
      <trkpt lat="43.84579" lon="6.58879">
        <ele>1677.1</ele>
        <time>2014-11-23T12:25:26Z</time>
      </trkpt>
      <trkpt lat="43.84573" lon="6.58869">
        <ele>1677</ele>
        <time>2014-11-23T12:25:38Z</time>
      </trkpt>
      <trkpt lat="43.84568" lon="6.58859">
        <ele>1677.1</ele>
        <time>2014-11-23T12:26:01Z</time>
      </trkpt>
      <trkpt lat="43.84557" lon="6.58838">
        <ele>1676.8</ele>
        <time>2014-11-23T12:26:17Z</time>
      </trkpt>
      <trkpt lat="43.84551" lon="6.58827">
        <ele>1676</ele>
        <time>2014-11-23T12:26:26Z</time>
      </trkpt>
      <trkpt lat="43.84544" lon="6.58818">
        <ele>1673.8</ele>
        <time>2014-11-23T12:26:39Z</time>
      </trkpt>
      <trkpt lat="43.84538" lon="6.58809">
        <ele>1672</ele>
        <time>2014-11-23T12:26:48Z</time>
      </trkpt>
      <trkpt lat="43.84532" lon="6.588">
        <ele>1670</ele>
        <time>2014-11-23T12:27:03Z</time>
      </trkpt>
      <trkpt lat="43.84525" lon="6.58775">
        <ele>1665.5</ele>
        <time>2014-11-23T12:27:29Z</time>
      </trkpt>
      <trkpt lat="43.84521" lon="6.58764">
        <ele>1663.8</ele>
        <time>2014-11-23T12:27:38Z</time>
      </trkpt>
      <trkpt lat="43.84517" lon="6.58752">
        <ele>1661.7</ele>
        <time>2014-11-23T12:27:48Z</time>
      </trkpt>
      <trkpt lat="43.84511" lon="6.58741">
        <ele>1659.1</ele>
        <time>2014-11-23T12:27:59Z</time>
      </trkpt>
      <trkpt lat="43.84505" lon="6.58733">
        <ele>1656</ele>
        <time>2014-11-23T12:28:13Z</time>
      </trkpt>
      <trkpt lat="43.84495" lon="6.58711">
        <ele>1651.2</ele>
        <time>2014-11-23T12:28:34Z</time>
      </trkpt>
      <trkpt lat="43.8449" lon="6.587">
        <ele>1649.4</ele>
        <time>2014-11-23T12:28:44Z</time>
      </trkpt>
      <trkpt lat="43.84486" lon="6.58688">
        <ele>1647.4</ele>
        <time>2014-11-23T12:28:53Z</time>
      </trkpt>
      <trkpt lat="43.84481" lon="6.58677">
        <ele>1645</ele>
        <time>2014-11-23T12:29:21Z</time>
      </trkpt>
      <trkpt lat="43.84469" lon="6.58658">
        <ele>1640.3</ele>
        <time>2014-11-23T12:29:56Z</time>
      </trkpt>
      <trkpt lat="43.84468" lon="6.58645">
        <ele>1637.3</ele>
        <time>2014-11-23T12:30:14Z</time>
      </trkpt>
      <trkpt lat="43.84462" lon="6.58636">
        <ele>1634.5</ele>
        <time>2014-11-23T12:30:29Z</time>
      </trkpt>
      <trkpt lat="43.84458" lon="6.58611">
        <ele>1628.1</ele>
        <time>2014-11-23T12:31:06Z</time>
      </trkpt>
      <trkpt lat="43.84453" lon="6.58599">
        <ele>1625.8</ele>
        <time>2014-11-23T12:31:17Z</time>
      </trkpt>
      <trkpt lat="43.84449" lon="6.58587">
        <ele>1624</ele>
        <time>2014-11-23T12:31:26Z</time>
      </trkpt>
      <trkpt lat="43.84446" lon="6.58573">
        <ele>1622.9</ele>
        <time>2014-11-23T12:31:35Z</time>
      </trkpt>
      <trkpt lat="43.84446" lon="6.58548">
        <ele>1620.3</ele>
        <time>2014-11-23T12:31:59Z</time>
      </trkpt>
      <trkpt lat="43.84443" lon="6.58536">
        <ele>1618.1</ele>
        <time>2014-11-23T12:32:09Z</time>
      </trkpt>
      <trkpt lat="43.84437" lon="6.58524">
        <ele>1616.3</ele>
        <time>2014-11-23T12:32:20Z</time>
      </trkpt>
      <trkpt lat="43.84436" lon="6.58511">
        <ele>1615.3</ele>
        <time>2014-11-23T12:32:30Z</time>
      </trkpt>
      <trkpt lat="43.84436" lon="6.58499">
        <ele>1613</ele>
        <time>2014-11-23T12:32:43Z</time>
      </trkpt>
      <trkpt lat="43.84431" lon="6.58474">
        <ele>1608.7</ele>
        <time>2014-11-23T12:33:09Z</time>
      </trkpt>
      <trkpt lat="43.84427" lon="6.58462">
        <ele>1606.1</ele>
        <time>2014-11-23T12:33:19Z</time>
      </trkpt>
      <trkpt lat="43.8442" lon="6.58453">
        <ele>1605.7</ele>
        <time>2014-11-23T12:33:31Z</time>
      </trkpt>
      <trkpt lat="43.84417" lon="6.58441">
        <ele>1604</ele>
        <time>2014-11-23T12:33:43Z</time>
      </trkpt>
      <trkpt lat="43.84414" lon="6.58429">
        <ele>1602</ele>
        <time>2014-11-23T12:33:55Z</time>
      </trkpt>
      <trkpt lat="43.84411" lon="6.58402">
        <ele>1596.8</ele>
        <time>2014-11-23T12:35:02Z</time>
      </trkpt>
      <trkpt lat="43.84408" lon="6.58377">
        <ele>1592.9</ele>
        <time>2014-11-23T12:35:29Z</time>
      </trkpt>
      <trkpt lat="43.84406" lon="6.58364">
        <ele>1590.5</ele>
        <time>2014-11-23T12:35:42Z</time>
      </trkpt>
      <trkpt lat="43.84403" lon="6.58352">
        <ele>1588.6</ele>
        <time>2014-11-23T12:35:53Z</time>
      </trkpt>
      <trkpt lat="43.84398" lon="6.58341">
        <ele>1585.7</ele>
        <time>2014-11-23T12:36:07Z</time>
      </trkpt>
      <trkpt lat="43.84392" lon="6.5832">
        <ele>1580.5</ele>
        <time>2014-11-23T12:36:40Z</time>
      </trkpt>
      <trkpt lat="43.84392" lon="6.58307">
        <ele>1578.1</ele>
        <time>2014-11-23T12:36:52Z</time>
      </trkpt>
      <trkpt lat="43.84388" lon="6.58294">
        <ele>1576.2</ele>
        <time>2014-11-23T12:37:08Z</time>
      </trkpt>
      <trkpt lat="43.84385" lon="6.5827">
        <ele>1571.8</ele>
        <time>2014-11-23T12:37:35Z</time>
      </trkpt>
      <trkpt lat="43.84383" lon="6.58257">
        <ele>1569.5</ele>
        <time>2014-11-23T12:37:54Z</time>
      </trkpt>
      <trkpt lat="43.84382" lon="6.58244">
        <ele>1567.5</ele>
        <time>2014-11-23T12:38:19Z</time>
      </trkpt>
      <trkpt lat="43.84368" lon="6.58228">
        <ele>1564.2</ele>
        <time>2014-11-23T12:38:46Z</time>
      </trkpt>
      <trkpt lat="43.84359" lon="6.58225">
        <ele>1564.4</ele>
        <time>2014-11-23T12:39:04Z</time>
      </trkpt>
      <trkpt lat="43.84352" lon="6.58215">
        <ele>1565.3</ele>
        <time>2014-11-23T12:39:17Z</time>
      </trkpt>
      <trkpt lat="43.84347" lon="6.58204">
        <ele>1565</ele>
        <time>2014-11-23T12:39:28Z</time>
      </trkpt>
      <trkpt lat="43.84342" lon="6.5818">
        <ele>1558.3</ele>
        <time>2014-11-23T12:40:18Z</time>
      </trkpt>
      <trkpt lat="43.84337" lon="6.58168">
        <ele>1556.2</ele>
        <time>2014-11-23T12:40:35Z</time>
      </trkpt>
      <trkpt lat="43.84333" lon="6.58143">
        <ele>1550.7</ele>
        <time>2014-11-23T12:41:11Z</time>
      </trkpt>
      <trkpt lat="43.8434" lon="6.58136">
        <ele>1545.2</ele>
        <time>2014-11-23T12:42:04Z</time>
      </trkpt>
      <trkpt lat="43.84338" lon="6.58115">
        <ele>1543.8</ele>
        <time>2014-11-23T12:42:34Z</time>
      </trkpt>
      <trkpt lat="43.84338" lon="6.58102">
        <ele>1543.6</ele>
        <time>2014-11-23T12:42:53Z</time>
      </trkpt>
      <trkpt lat="43.84336" lon="6.5809">
        <ele>1539.6</ele>
        <time>2014-11-23T12:43:21Z</time>
      </trkpt>
      <trkpt lat="43.8434" lon="6.58065">
        <ele>1531.6</ele>
        <time>2014-11-23T12:43:59Z</time>
      </trkpt>
      <trkpt lat="43.84338" lon="6.58052">
        <ele>1530.2</ele>
        <time>2014-11-23T12:44:12Z</time>
      </trkpt>
      <trkpt lat="43.84337" lon="6.58038">
        <ele>1529.5</ele>
        <time>2014-11-23T12:44:26Z</time>
      </trkpt>
      <trkpt lat="43.84336" lon="6.58014">
        <ele>1528.2</ele>
        <time>2014-11-23T12:45:01Z</time>
      </trkpt>
      <trkpt lat="43.84327" lon="6.58011">
        <ele>1525.7</ele>
        <time>2014-11-23T12:45:25Z</time>
      </trkpt>
      <trkpt lat="43.84319" lon="6.58005">
        <ele>1522.7</ele>
        <time>2014-11-23T12:45:42Z</time>
      </trkpt>
      <trkpt lat="43.84308" lon="6.57985">
        <ele>1516.3</ele>
        <time>2014-11-23T12:46:11Z</time>
      </trkpt>
      <trkpt lat="43.84303" lon="6.57975">
        <ele>1514.1</ele>
        <time>2014-11-23T12:46:24Z</time>
      </trkpt>
      <trkpt lat="43.84298" lon="6.57963">
        <ele>1511.2</ele>
        <time>2014-11-23T12:46:37Z</time>
      </trkpt>
      <trkpt lat="43.84293" lon="6.57952">
        <ele>1510.1</ele>
        <time>2014-11-23T12:46:47Z</time>
      </trkpt>
      <trkpt lat="43.84278" lon="6.57937">
        <ele>1507.7</ele>
        <time>2014-11-23T12:47:07Z</time>
      </trkpt>
      <trkpt lat="43.84275" lon="6.57924">
        <ele>1506.5</ele>
        <time>2014-11-23T12:47:17Z</time>
      </trkpt>
      <trkpt lat="43.84272" lon="6.57911">
        <ele>1505.4</ele>
        <time>2014-11-23T12:47:27Z</time>
      </trkpt>
      <trkpt lat="43.84276" lon="6.579">
        <ele>1505</ele>
        <time>2014-11-23T12:47:42Z</time>
      </trkpt>
      <trkpt lat="43.84272" lon="6.57888">
        <ele>1504.1</ele>
        <time>2014-11-23T12:48:22Z</time>
      </trkpt>
      <trkpt lat="43.84277" lon="6.57863">
        <ele>1497.2</ele>
        <time>2014-11-23T12:49:01Z</time>
      </trkpt>
      <trkpt lat="43.84271" lon="6.57851">
        <ele>1492.3</ele>
        <time>2014-11-23T12:49:46Z</time>
      </trkpt>
      <trkpt lat="43.84257" lon="6.57832">
        <ele>1487.8</ele>
        <time>2014-11-23T12:51:30Z</time>
      </trkpt>
      <trkpt lat="43.84239" lon="6.57803">
        <ele>1482.3</ele>
        <time>2014-11-23T12:53:56Z</time>
      </trkpt>
      <trkpt lat="43.84222" lon="6.57793">
        <ele>1475.7</ele>
        <time>2014-11-23T12:54:34Z</time>
      </trkpt>
      <trkpt lat="43.84218" lon="6.57781">
        <ele>1473.1</ele>
        <time>2014-11-23T12:54:51Z</time>
      </trkpt>
      <trkpt lat="43.84216" lon="6.57769">
        <ele>1470.6</ele>
        <time>2014-11-23T12:55:09Z</time>
      </trkpt>
      <trkpt lat="43.84224" lon="6.57748">
        <ele>1468.1</ele>
        <time>2014-11-23T12:55:57Z</time>
      </trkpt>
      <trkpt lat="43.84232" lon="6.5774">
        <ele>1466.4</ele>
        <time>2014-11-23T12:56:25Z</time>
      </trkpt>
      <trkpt lat="43.84236" lon="6.57715">
        <ele>1459.3</ele>
        <time>2014-11-23T12:57:22Z</time>
      </trkpt>
      <trkpt lat="43.84234" lon="6.57702">
        <ele>1456.8</ele>
        <time>2014-11-23T12:57:48Z</time>
      </trkpt>
      <trkpt lat="43.84226" lon="6.57666">
        <ele>1447.7</ele>
        <time>2014-11-23T13:02:29Z</time>
      </trkpt>
      <trkpt lat="43.8422" lon="6.57656">
        <ele>1446.4</ele>
        <time>2014-11-23T13:02:51Z</time>
      </trkpt>
      <trkpt lat="43.84217" lon="6.57644">
        <ele>1445.2</ele>
        <time>2014-11-23T13:03:02Z</time>
      </trkpt>
      <trkpt lat="43.8421" lon="6.57619">
        <ele>1441.8</ele>
        <time>2014-11-23T13:03:58Z</time>
      </trkpt>
      <trkpt lat="43.84203" lon="6.57607">
        <ele>1439.9</ele>
        <time>2014-11-23T13:04:38Z</time>
      </trkpt>
      <trkpt lat="43.84206" lon="6.57579">
        <ele>1438.9</ele>
        <time>2014-11-23T13:04:51Z</time>
      </trkpt>
      <trkpt lat="43.84202" lon="6.57566">
        <ele>1438.4</ele>
        <time>2014-11-23T13:05:01Z</time>
      </trkpt>
      <trkpt lat="43.84197" lon="6.57556">
        <ele>1438</ele>
        <time>2014-11-23T13:05:15Z</time>
      </trkpt>
      <trkpt lat="43.84191" lon="6.57545">
        <ele>1437</ele>
        <time>2014-11-23T13:05:22Z</time>
      </trkpt>
      <trkpt lat="43.84188" lon="6.57533">
        <ele>1435.8</ele>
        <time>2014-11-23T13:05:36Z</time>
      </trkpt>
      <trkpt lat="43.84186" lon="6.57521">
        <ele>1434.9</ele>
        <time>2014-11-23T13:05:53Z</time>
      </trkpt>
      <trkpt lat="43.84189" lon="6.57495">
        <ele>1434.6</ele>
        <time>2014-11-23T13:06:33Z</time>
      </trkpt>
      <trkpt lat="43.8419" lon="6.57482">
        <ele>1435.7</ele>
        <time>2014-11-23T13:06:48Z</time>
      </trkpt>
      <trkpt lat="43.84193" lon="6.5747">
        <ele>1435</ele>
        <time>2014-11-23T13:06:57Z</time>
      </trkpt>
      <trkpt lat="43.84195" lon="6.57445">
        <ele>1431.3</ele>
        <time>2014-11-23T13:07:23Z</time>
      </trkpt>
      <trkpt lat="43.84202" lon="6.57437">
        <ele>1430.7</ele>
        <time>2014-11-23T13:07:37Z</time>
      </trkpt>
      <trkpt lat="43.84207" lon="6.57426">
        <ele>1430.9</ele>
        <time>2014-11-23T13:07:49Z</time>
      </trkpt>
      <trkpt lat="43.84209" lon="6.57414">
        <ele>1428.6</ele>
        <time>2014-11-23T13:08:21Z</time>
      </trkpt>
      <trkpt lat="43.84193" lon="6.574">
        <ele>1417.4</ele>
        <time>2014-11-23T13:09:17Z</time>
      </trkpt>
      <trkpt lat="43.84192" lon="6.57387">
        <ele>1414</ele>
        <time>2014-11-23T13:09:32Z</time>
      </trkpt>
      <trkpt lat="43.84183" lon="6.57365">
        <ele>1408.3</ele>
        <time>2014-11-23T13:09:59Z</time>
      </trkpt>
      <trkpt lat="43.84181" lon="6.57353">
        <ele>1406.4</ele>
        <time>2014-11-23T13:10:18Z</time>
      </trkpt>
      <trkpt lat="43.84179" lon="6.5734">
        <ele>1403.4</ele>
        <time>2014-11-23T13:10:43Z</time>
      </trkpt>
      <trkpt lat="43.84121" lon="6.57308">
        <ele>1366.6</ele>
        <time>2014-11-23T13:17:40Z</time>
      </trkpt>
      <trkpt lat="43.84095" lon="6.5731">
        <ele>1351.4</ele>
        <time>2014-11-23T13:20:28Z</time>
      </trkpt>
      <trkpt lat="43.84086" lon="6.5731">
        <ele>1348.1</ele>
        <time>2014-11-23T13:20:43Z</time>
      </trkpt>
      <trkpt lat="43.84079" lon="6.573">
        <ele>1345</ele>
        <time>2014-11-23T13:20:55Z</time>
      </trkpt>
      <trkpt lat="43.84074" lon="6.57289">
        <ele>1342.8</ele>
        <time>2014-11-23T13:21:12Z</time>
      </trkpt>
      <trkpt lat="43.8406" lon="6.57273">
        <ele>1336.3</ele>
        <time>2014-11-23T13:22:07Z</time>
      </trkpt>
      <trkpt lat="43.84055" lon="6.57261">
        <ele>1334.5</ele>
        <time>2014-11-23T13:22:18Z</time>
      </trkpt>
      <trkpt lat="43.84043" lon="6.5724">
        <ele>1328</ele>
        <time>2014-11-23T13:22:39Z</time>
      </trkpt>
      <trkpt lat="43.84041" lon="6.57227">
        <ele>1326.4</ele>
        <time>2014-11-23T13:22:52Z</time>
      </trkpt>
      <trkpt lat="43.84039" lon="6.57215">
        <ele>1323.8</ele>
        <time>2014-11-23T13:23:07Z</time>
      </trkpt>
      <trkpt lat="43.84032" lon="6.57205">
        <ele>1320</ele>
        <time>2014-11-23T13:23:21Z</time>
      </trkpt>
      <trkpt lat="43.84019" lon="6.57187">
        <ele>1314</ele>
        <time>2014-11-23T13:23:47Z</time>
      </trkpt>
      <trkpt lat="43.84014" lon="6.57176">
        <ele>1312.8</ele>
        <time>2014-11-23T13:23:55Z</time>
      </trkpt>
      <trkpt lat="43.8401" lon="6.57164">
        <ele>1310.9</ele>
        <time>2014-11-23T13:24:02Z</time>
      </trkpt>
      <trkpt lat="43.84007" lon="6.57151">
        <ele>1309.6</ele>
        <time>2014-11-23T13:24:11Z</time>
      </trkpt>
      <trkpt lat="43.84002" lon="6.5714">
        <ele>1306.8</ele>
        <time>2014-11-23T13:24:21Z</time>
      </trkpt>
      <trkpt lat="43.84" lon="6.57127">
        <ele>1303.3</ele>
        <time>2014-11-23T13:24:31Z</time>
      </trkpt>
      <trkpt lat="43.84001" lon="6.57101">
        <ele>1298.5</ele>
        <time>2014-11-23T13:24:46Z</time>
      </trkpt>
      <trkpt lat="43.84006" lon="6.5709">
        <ele>1296.7</ele>
        <time>2014-11-23T13:24:53Z</time>
      </trkpt>
      <trkpt lat="43.84011" lon="6.57079">
        <ele>1296.6</ele>
        <time>2014-11-23T13:25:00Z</time>
      </trkpt>
      <trkpt lat="43.84012" lon="6.57065">
        <ele>1295.2</ele>
        <time>2014-11-23T13:25:07Z</time>
      </trkpt>
      <trkpt lat="43.84009" lon="6.57052">
        <ele>1291.9</ele>
        <time>2014-11-23T13:25:15Z</time>
      </trkpt>
      <trkpt lat="43.84006" lon="6.57039">
        <ele>1289.4</ele>
        <time>2014-11-23T13:25:23Z</time>
      </trkpt>
      <trkpt lat="43.84008" lon="6.57026">
        <ele>1288.3</ele>
        <time>2014-11-23T13:25:30Z</time>
      </trkpt>
      <trkpt lat="43.84004" lon="6.57014">
        <ele>1285.1</ele>
        <time>2014-11-23T13:25:38Z</time>
      </trkpt>
      <trkpt lat="43.83997" lon="6.56989">
        <ele>1278.9</ele>
        <time>2014-11-23T13:25:58Z</time>
      </trkpt>
      <trkpt lat="43.83992" lon="6.56975">
        <ele>1276.3</ele>
        <time>2014-11-23T13:26:04Z</time>
      </trkpt>
      <trkpt lat="43.83992" lon="6.56962">
        <ele>1272.8</ele>
        <time>2014-11-23T13:26:11Z</time>
      </trkpt>
      <trkpt lat="43.83994" lon="6.56948">
        <ele>1270.2</ele>
        <time>2014-11-23T13:26:19Z</time>
      </trkpt>
      <trkpt lat="43.83993" lon="6.56935">
        <ele>1269.3</ele>
        <time>2014-11-23T13:26:27Z</time>
      </trkpt>
      <trkpt lat="43.83987" lon="6.56923">
        <ele>1266.9</ele>
        <time>2014-11-23T13:26:36Z</time>
      </trkpt>
      <trkpt lat="43.83979" lon="6.56916">
        <ele>1264.8</ele>
        <time>2014-11-23T13:26:44Z</time>
      </trkpt>
      <trkpt lat="43.83981" lon="6.5689">
        <ele>1260</ele>
        <time>2014-11-23T13:27:03Z</time>
      </trkpt>
      <trkpt lat="43.83978" lon="6.56877">
        <ele>1258.8</ele>
        <time>2014-11-23T13:27:08Z</time>
      </trkpt>
      <trkpt lat="43.83978" lon="6.56864">
        <ele>1257.1</ele>
        <time>2014-11-23T13:27:15Z</time>
      </trkpt>
      <trkpt lat="43.8398" lon="6.56852">
        <ele>1254</ele>
        <time>2014-11-23T13:27:26Z</time>
      </trkpt>
      <trkpt lat="43.83976" lon="6.5684">
        <ele>1251.3</ele>
        <time>2014-11-23T13:27:36Z</time>
      </trkpt>
      <trkpt lat="43.83973" lon="6.56828">
        <ele>1248.3</ele>
        <time>2014-11-23T13:27:43Z</time>
      </trkpt>
      <trkpt lat="43.83966" lon="6.56819">
        <ele>1245.9</ele>
        <time>2014-11-23T13:27:49Z</time>
      </trkpt>
      <trkpt lat="43.8395" lon="6.56804">
        <ele>1242</ele>
        <time>2014-11-23T13:28:05Z</time>
      </trkpt>
      <trkpt lat="43.83941" lon="6.56801">
        <ele>1240.4</ele>
        <time>2014-11-23T13:28:14Z</time>
      </trkpt>
      <trkpt lat="43.83932" lon="6.56793">
        <ele>1239</ele>
        <time>2014-11-23T13:28:21Z</time>
      </trkpt>
      <trkpt lat="43.83923" lon="6.5679">
        <ele>1238.5</ele>
        <time>2014-11-23T13:28:28Z</time>
      </trkpt>
      <trkpt lat="43.83914" lon="6.56785">
        <ele>1238.3</ele>
        <time>2014-11-23T13:28:34Z</time>
      </trkpt>
      <trkpt lat="43.83905" lon="6.56782">
        <ele>1236.3</ele>
        <time>2014-11-23T13:28:43Z</time>
      </trkpt>
      <trkpt lat="43.83895" lon="6.56782">
        <ele>1234.8</ele>
        <time>2014-11-23T13:28:50Z</time>
      </trkpt>
      <trkpt lat="43.83877" lon="6.56767">
        <ele>1230.6</ele>
        <time>2014-11-23T13:29:04Z</time>
      </trkpt>
      <trkpt lat="43.8387" lon="6.56756">
        <ele>1229.5</ele>
        <time>2014-11-23T13:29:09Z</time>
      </trkpt>
      <trkpt lat="43.83861" lon="6.56759">
        <ele>1227</ele>
        <time>2014-11-23T13:29:22Z</time>
      </trkpt>
      <trkpt lat="43.83853" lon="6.56767">
        <ele>1224.9</ele>
        <time>2014-11-23T13:29:30Z</time>
      </trkpt>
      <trkpt lat="43.83844" lon="6.56763">
        <ele>1222.9</ele>
        <time>2014-11-23T13:29:37Z</time>
      </trkpt>
      <trkpt lat="43.83835" lon="6.56755">
        <ele>1220.7</ele>
        <time>2014-11-23T13:29:43Z</time>
      </trkpt>
      <trkpt lat="43.83832" lon="6.56742">
        <ele>1218.9</ele>
        <time>2014-11-23T13:29:49Z</time>
      </trkpt>
      <trkpt lat="43.83829" lon="6.56729">
        <ele>1217.2</ele>
        <time>2014-11-23T13:29:53Z</time>
      </trkpt>
      <trkpt lat="43.83827" lon="6.56704">
        <ele>1212.4</ele>
        <time>2014-11-23T13:30:05Z</time>
      </trkpt>
      <trkpt lat="43.8383" lon="6.56692">
        <ele>1209.9</ele>
        <time>2014-11-23T13:30:12Z</time>
      </trkpt>
      <trkpt lat="43.83834" lon="6.56679">
        <ele>1206.8</ele>
        <time>2014-11-23T13:30:20Z</time>
      </trkpt>
      <trkpt lat="43.83838" lon="6.56666">
        <ele>1206.5</ele>
        <time>2014-11-23T13:30:26Z</time>
      </trkpt>
      <trkpt lat="43.83839" lon="6.56653">
        <ele>1204.9</ele>
        <time>2014-11-23T13:30:35Z</time>
      </trkpt>
      <trkpt lat="43.83839" lon="6.56669">
        <ele>1201.7</ele>
        <time>2014-11-23T13:30:52Z</time>
      </trkpt>
      <trkpt lat="43.83829" lon="6.56668">
        <ele>1200.7</ele>
        <time>2014-11-23T13:30:59Z</time>
      </trkpt>
      <trkpt lat="43.8381" lon="6.56671">
        <ele>1199.7</ele>
        <time>2014-11-23T13:31:22Z</time>
      </trkpt>
      <trkpt lat="43.838" lon="6.56666">
        <ele>1198.8</ele>
        <time>2014-11-23T13:31:27Z</time>
      </trkpt>
      <trkpt lat="43.83791" lon="6.5666">
        <ele>1198.8</ele>
        <time>2014-11-23T13:31:32Z</time>
      </trkpt>
      <trkpt lat="43.83783" lon="6.56652">
        <ele>1198.4</ele>
        <time>2014-11-23T13:31:37Z</time>
      </trkpt>
      <trkpt lat="43.83783" lon="6.56637">
        <ele>1197.8</ele>
        <time>2014-11-23T13:31:43Z</time>
      </trkpt>
      <trkpt lat="43.83787" lon="6.56623">
        <ele>1197.3</ele>
        <time>2014-11-23T13:31:50Z</time>
      </trkpt>
      <trkpt lat="43.83788" lon="6.56609">
        <ele>1196.5</ele>
        <time>2014-11-23T13:31:57Z</time>
      </trkpt>
      <trkpt lat="43.83791" lon="6.56597">
        <ele>1195.4</ele>
        <time>2014-11-23T13:32:03Z</time>
      </trkpt>
      <trkpt lat="43.83793" lon="6.56569">
        <ele>1193.5</ele>
        <time>2014-11-23T13:32:18Z</time>
      </trkpt>
      <trkpt lat="43.83799" lon="6.56559">
        <ele>1192.7</ele>
        <time>2014-11-23T13:32:37Z</time>
      </trkpt>
      <trkpt lat="43.83802" lon="6.56547">
        <ele>1189.1</ele>
        <time>2014-11-23T13:32:49Z</time>
      </trkpt>
      <trkpt lat="43.83802" lon="6.56534">
        <ele>1187.2</ele>
        <time>2014-11-23T13:32:56Z</time>
      </trkpt>
      <trkpt lat="43.83806" lon="6.56523">
        <ele>1186</ele>
        <time>2014-11-23T13:33:02Z</time>
      </trkpt>
      <trkpt lat="43.83808" lon="6.5651">
        <ele>1184.6</ele>
        <time>2014-11-23T13:33:08Z</time>
      </trkpt>
      <trkpt lat="43.83807" lon="6.56483">
        <ele>1180.6</ele>
        <time>2014-11-23T13:33:21Z</time>
      </trkpt>
      <trkpt lat="43.83804" lon="6.56469">
        <ele>1178.3</ele>
        <time>2014-11-23T13:33:28Z</time>
      </trkpt>
      <trkpt lat="43.83802" lon="6.56456">
        <ele>1177.4</ele>
        <time>2014-11-23T13:33:33Z</time>
      </trkpt>
      <trkpt lat="43.83812" lon="6.56456">
        <ele>1175.1</ele>
        <time>2014-11-23T13:33:43Z</time>
      </trkpt>
      <trkpt lat="43.8382" lon="6.5645">
        <ele>1172.7</ele>
        <time>2014-11-23T13:33:51Z</time>
      </trkpt>
      <trkpt lat="43.83823" lon="6.56438">
        <ele>1171.5</ele>
        <time>2014-11-23T13:33:57Z</time>
      </trkpt>
      <trkpt lat="43.83828" lon="6.56427">
        <ele>1169.6</ele>
        <time>2014-11-23T13:34:03Z</time>
      </trkpt>
      <trkpt lat="43.83838" lon="6.56423">
        <ele>1166.9</ele>
        <time>2014-11-23T13:34:12Z</time>
      </trkpt>
      <trkpt lat="43.83845" lon="6.56403">
        <ele>1163.6</ele>
        <time>2014-11-23T13:34:28Z</time>
      </trkpt>
      <trkpt lat="43.83839" lon="6.56392">
        <ele>1164.1</ele>
        <time>2014-11-23T13:34:33Z</time>
      </trkpt>
      <trkpt lat="43.83827" lon="6.56387">
        <ele>1164.8</ele>
        <time>2014-11-23T13:34:37Z</time>
      </trkpt>
      <trkpt lat="43.83823" lon="6.5637">
        <ele>1163.5</ele>
        <time>2014-11-23T13:34:40Z</time>
      </trkpt>
      <trkpt lat="43.83817" lon="6.5636">
        <ele>1163</ele>
        <time>2014-11-23T13:34:46Z</time>
      </trkpt>
      <trkpt lat="43.83808" lon="6.56358">
        <ele>1159.8</ele>
        <time>2014-11-23T13:34:58Z</time>
      </trkpt>
      <trkpt lat="43.83798" lon="6.56358">
        <ele>1158.3</ele>
        <time>2014-11-23T13:35:03Z</time>
      </trkpt>
      <trkpt lat="43.83788" lon="6.56354">
        <ele>1156</ele>
        <time>2014-11-23T13:35:12Z</time>
      </trkpt>
      <trkpt lat="43.83784" lon="6.56369">
        <ele>1154.9</ele>
        <time>2014-11-23T13:35:16Z</time>
      </trkpt>
      <trkpt lat="43.83769" lon="6.56388">
        <ele>1153.4</ele>
        <time>2014-11-23T13:35:24Z</time>
      </trkpt>
      <trkpt lat="43.83758" lon="6.56391">
        <ele>1151</ele>
        <time>2014-11-23T13:35:33Z</time>
      </trkpt>
      <trkpt lat="43.83754" lon="6.56379">
        <ele>1150.4</ele>
        <time>2014-11-23T13:35:39Z</time>
      </trkpt>
      <trkpt lat="43.83747" lon="6.5637">
        <ele>1150.4</ele>
        <time>2014-11-23T13:35:46Z</time>
      </trkpt>
      <trkpt lat="43.83743" lon="6.56357">
        <ele>1149.8</ele>
        <time>2014-11-23T13:35:55Z</time>
      </trkpt>
      <trkpt lat="43.83741" lon="6.56338">
        <ele>1149.1</ele>
        <time>2014-11-23T13:35:58Z</time>
      </trkpt>
      <trkpt lat="43.83736" lon="6.56325">
        <ele>1149.2</ele>
        <time>2014-11-23T13:36:01Z</time>
      </trkpt>
      <trkpt lat="43.83734" lon="6.56312">
        <ele>1149.2</ele>
        <time>2014-11-23T13:36:04Z</time>
      </trkpt>
      <trkpt lat="43.83727" lon="6.56302">
        <ele>1148.7</ele>
        <time>2014-11-23T13:36:08Z</time>
      </trkpt>
      <trkpt lat="43.83718" lon="6.56294">
        <ele>1148.2</ele>
        <time>2014-11-23T13:36:12Z</time>
      </trkpt>
      <trkpt lat="43.83707" lon="6.56294">
        <ele>1147.8</ele>
        <time>2014-11-23T13:36:17Z</time>
      </trkpt>
      <trkpt lat="43.83688" lon="6.56282">
        <ele>1146.3</ele>
        <time>2014-11-23T13:36:28Z</time>
      </trkpt>
      <trkpt lat="43.83677" lon="6.56282">
        <ele>1145.2</ele>
        <time>2014-11-23T13:36:35Z</time>
      </trkpt>
      <trkpt lat="43.83668" lon="6.56276">
        <ele>1143.7</ele>
        <time>2014-11-23T13:36:39Z</time>
      </trkpt>
      <trkpt lat="43.8366" lon="6.56268">
        <ele>1140.4</ele>
        <time>2014-11-23T13:36:49Z</time>
      </trkpt>
      <trkpt lat="43.83653" lon="6.56259">
        <ele>1138.8</ele>
        <time>2014-11-23T13:36:54Z</time>
      </trkpt>
      <trkpt lat="43.83646" lon="6.5625">
        <ele>1138.1</ele>
        <time>2014-11-23T13:36:59Z</time>
      </trkpt>
      <trkpt lat="43.83641" lon="6.56239">
        <ele>1137.5</ele>
        <time>2014-11-23T13:37:04Z</time>
      </trkpt>
      <trkpt lat="43.83637" lon="6.56227">
        <ele>1136.2</ele>
        <time>2014-11-23T13:37:08Z</time>
      </trkpt>
      <trkpt lat="43.83635" lon="6.56215">
        <ele>1136</ele>
        <time>2014-11-23T13:37:11Z</time>
      </trkpt>
      <trkpt lat="43.83637" lon="6.56202">
        <ele>1135.7</ele>
        <time>2014-11-23T13:37:16Z</time>
      </trkpt>
      <trkpt lat="43.83639" lon="6.5618">
        <ele>1134.7</ele>
        <time>2014-11-23T13:37:21Z</time>
      </trkpt>
      <trkpt lat="43.83639" lon="6.56151">
        <ele>1133.9</ele>
        <time>2014-11-23T13:37:31Z</time>
      </trkpt>
      <trkpt lat="43.83636" lon="6.56137">
        <ele>1133.1</ele>
        <time>2014-11-23T13:37:36Z</time>
      </trkpt>
      <trkpt lat="43.83628" lon="6.5613">
        <ele>1132.3</ele>
        <time>2014-11-23T13:37:40Z</time>
      </trkpt>
      <trkpt lat="43.83622" lon="6.56119">
        <ele>1131.2</ele>
        <time>2014-11-23T13:37:44Z</time>
      </trkpt>
      <trkpt lat="43.83618" lon="6.56108">
        <ele>1130.8</ele>
        <time>2014-11-23T13:37:49Z</time>
      </trkpt>
      <trkpt lat="43.83615" lon="6.56096">
        <ele>1129.7</ele>
        <time>2014-11-23T13:37:55Z</time>
      </trkpt>
      <trkpt lat="43.83607" lon="6.56091">
        <ele>1128.6</ele>
        <time>2014-11-23T13:38:01Z</time>
      </trkpt>
      <trkpt lat="43.836" lon="6.5608">
        <ele>1127.1</ele>
        <time>2014-11-23T13:38:08Z</time>
      </trkpt>
      <trkpt lat="43.83596" lon="6.56068">
        <ele>1125.4</ele>
        <time>2014-11-23T13:38:14Z</time>
      </trkpt>
      <trkpt lat="43.83589" lon="6.56059">
        <ele>1124.4</ele>
        <time>2014-11-23T13:38:19Z</time>
      </trkpt>
      <trkpt lat="43.83582" lon="6.5605">
        <ele>1122.3</ele>
        <time>2014-11-23T13:38:26Z</time>
      </trkpt>
      <trkpt lat="43.83569" lon="6.56031">
        <ele>1118.6</ele>
        <time>2014-11-23T13:38:39Z</time>
      </trkpt>
      <trkpt lat="43.83565" lon="6.5602">
        <ele>1116.6</ele>
        <time>2014-11-23T13:38:44Z</time>
      </trkpt>
      <trkpt lat="43.83563" lon="6.56006">
        <ele>1115.2</ele>
        <time>2014-11-23T13:38:52Z</time>
      </trkpt>
      <trkpt lat="43.8356" lon="6.55993">
        <ele>1113.4</ele>
        <time>2014-11-23T13:38:59Z</time>
      </trkpt>
      <trkpt lat="43.83554" lon="6.55982">
        <ele>1112.4</ele>
        <time>2014-11-23T13:39:05Z</time>
      </trkpt>
      <trkpt lat="43.83546" lon="6.55972">
        <ele>1110.4</ele>
        <time>2014-11-23T13:39:11Z</time>
      </trkpt>
      <trkpt lat="43.83538" lon="6.55964">
        <ele>1109.3</ele>
        <time>2014-11-23T13:39:17Z</time>
      </trkpt>
      <trkpt lat="43.83531" lon="6.55954">
        <ele>1108.5</ele>
        <time>2014-11-23T13:39:23Z</time>
      </trkpt>
      <trkpt lat="43.83527" lon="6.55942">
        <ele>1107.8</ele>
        <time>2014-11-23T13:39:28Z</time>
      </trkpt>
      <trkpt lat="43.83514" lon="6.55924">
        <ele>1104.8</ele>
        <time>2014-11-23T13:39:38Z</time>
      </trkpt>
      <trkpt lat="43.83507" lon="6.55915">
        <ele>1102.1</ele>
        <time>2014-11-23T13:39:43Z</time>
      </trkpt>
      <trkpt lat="43.83498" lon="6.55914">
        <ele>1097.8</ele>
        <time>2014-11-23T13:39:53Z</time>
      </trkpt>
      <trkpt lat="43.83488" lon="6.55914">
        <ele>1093.6</ele>
        <time>2014-11-23T13:40:04Z</time>
      </trkpt>
      <trkpt lat="43.83482" lon="6.55905">
        <ele>1091.2</ele>
        <time>2014-11-23T13:40:12Z</time>
      </trkpt>
      <trkpt lat="43.83478" lon="6.55893">
        <ele>1089</ele>
        <time>2014-11-23T13:40:19Z</time>
      </trkpt>
      <trkpt lat="43.83475" lon="6.55881">
        <ele>1087.4</ele>
        <time>2014-11-23T13:40:24Z</time>
      </trkpt>
      <trkpt lat="43.83471" lon="6.5587">
        <ele>1085.3</ele>
        <time>2014-11-23T13:40:30Z</time>
      </trkpt>
      <trkpt lat="43.83465" lon="6.55843">
        <ele>1081.6</ele>
        <time>2014-11-23T13:40:42Z</time>
      </trkpt>
      <trkpt lat="43.83463" lon="6.55831">
        <ele>1079.2</ele>
        <time>2014-11-23T13:40:48Z</time>
      </trkpt>
      <trkpt lat="43.8346" lon="6.55817">
        <ele>1077.3</ele>
        <time>2014-11-23T13:40:55Z</time>
      </trkpt>
      <trkpt lat="43.83459" lon="6.55804">
        <ele>1075.6</ele>
        <time>2014-11-23T13:41:00Z</time>
      </trkpt>
      <trkpt lat="43.8346" lon="6.5579">
        <ele>1073.4</ele>
        <time>2014-11-23T13:41:06Z</time>
      </trkpt>
      <trkpt lat="43.83458" lon="6.55777">
        <ele>1071.6</ele>
        <time>2014-11-23T13:41:12Z</time>
      </trkpt>
      <trkpt lat="43.83455" lon="6.55765">
        <ele>1069.8</ele>
        <time>2014-11-23T13:41:19Z</time>
      </trkpt>
      <trkpt lat="43.83454" lon="6.55751">
        <ele>1068.6</ele>
        <time>2014-11-23T13:41:26Z</time>
      </trkpt>
      <trkpt lat="43.83452" lon="6.55737">
        <ele>1067.2</ele>
        <time>2014-11-23T13:41:32Z</time>
      </trkpt>
      <trkpt lat="43.83451" lon="6.55709">
        <ele>1063.9</ele>
        <time>2014-11-23T13:41:43Z</time>
      </trkpt>
      <trkpt lat="43.83449" lon="6.55696">
        <ele>1062.3</ele>
        <time>2014-11-23T13:41:48Z</time>
      </trkpt>
      <trkpt lat="43.83446" lon="6.55682">
        <ele>1059.9</ele>
        <time>2014-11-23T13:41:54Z</time>
      </trkpt>
      <trkpt lat="43.83442" lon="6.55668">
        <ele>1057.3</ele>
        <time>2014-11-23T13:42:00Z</time>
      </trkpt>
      <trkpt lat="43.83437" lon="6.55658">
        <ele>1055.2</ele>
        <time>2014-11-23T13:42:06Z</time>
      </trkpt>
      <trkpt lat="43.8343" lon="6.55648">
        <ele>1053.5</ele>
        <time>2014-11-23T13:42:13Z</time>
      </trkpt>
      <trkpt lat="43.83423" lon="6.5564">
        <ele>1052</ele>
        <time>2014-11-23T13:42:19Z</time>
      </trkpt>
      <trkpt lat="43.83414" lon="6.55635">
        <ele>1050.3</ele>
        <time>2014-11-23T13:42:26Z</time>
      </trkpt>
      <trkpt lat="43.83403" lon="6.55634">
        <ele>1049.3</ele>
        <time>2014-11-23T13:42:33Z</time>
      </trkpt>
      <trkpt lat="43.83385" lon="6.55636">
        <ele>1046.7</ele>
        <time>2014-11-23T13:42:47Z</time>
      </trkpt>
      <trkpt lat="43.83375" lon="6.55634">
        <ele>1044.9</ele>
        <time>2014-11-23T13:42:54Z</time>
      </trkpt>
      <trkpt lat="43.83368" lon="6.55642">
        <ele>1040.6</ele>
        <time>2014-11-23T13:43:07Z</time>
      </trkpt>
      <trkpt lat="43.83363" lon="6.55653">
        <ele>1038.1</ele>
        <time>2014-11-23T13:43:14Z</time>
      </trkpt>
      <trkpt lat="43.83359" lon="6.55666">
        <ele>1035.9</ele>
        <time>2014-11-23T13:43:20Z</time>
      </trkpt>
      <trkpt lat="43.83353" lon="6.55679">
        <ele>1032</ele>
        <time>2014-11-23T13:43:29Z</time>
      </trkpt>
      <trkpt lat="43.83348" lon="6.5569">
        <ele>1029.6</ele>
        <time>2014-11-23T13:43:35Z</time>
      </trkpt>
      <trkpt lat="43.83339" lon="6.55713">
        <ele>1023.8</ele>
        <time>2014-11-23T13:43:49Z</time>
      </trkpt>
      <trkpt lat="43.83334" lon="6.55725">
        <ele>1021.3</ele>
        <time>2014-11-23T13:43:56Z</time>
      </trkpt>
      <trkpt lat="43.83327" lon="6.55734">
        <ele>1018.5</ele>
        <time>2014-11-23T13:44:05Z</time>
      </trkpt>
      <trkpt lat="43.83316" lon="6.55741">
        <ele>1016.4</ele>
        <time>2014-11-23T13:44:13Z</time>
      </trkpt>
      <trkpt lat="43.83307" lon="6.55745">
        <ele>1014.3</ele>
        <time>2014-11-23T13:44:19Z</time>
      </trkpt>
      <trkpt lat="43.83297" lon="6.55751">
        <ele>1013.5</ele>
        <time>2014-11-23T13:44:25Z</time>
      </trkpt>
      <trkpt lat="43.83287" lon="6.55753">
        <ele>1012.8</ele>
        <time>2014-11-23T13:44:30Z</time>
      </trkpt>
      <trkpt lat="43.83277" lon="6.55756">
        <ele>1012.1</ele>
        <time>2014-11-23T13:44:36Z</time>
      </trkpt>
      <trkpt lat="43.83257" lon="6.55752">
        <ele>1009.1</ele>
        <time>2014-11-23T13:44:49Z</time>
      </trkpt>
      <trkpt lat="43.83249" lon="6.55757">
        <ele>1007.3</ele>
        <time>2014-11-23T13:44:56Z</time>
      </trkpt>
      <trkpt lat="43.83239" lon="6.55759">
        <ele>1005.4</ele>
        <time>2014-11-23T13:45:04Z</time>
      </trkpt>
      <trkpt lat="43.83229" lon="6.55763">
        <ele>1002.5</ele>
        <time>2014-11-23T13:45:11Z</time>
      </trkpt>
      <trkpt lat="43.83219" lon="6.55761">
        <ele>1001.3</ele>
        <time>2014-11-23T13:45:15Z</time>
      </trkpt>
      <trkpt lat="43.83211" lon="6.55766">
        <ele>998.3</ele>
        <time>2014-11-23T13:45:22Z</time>
      </trkpt>
      <trkpt lat="43.83201" lon="6.55765">
        <ele>995.5</ele>
        <time>2014-11-23T13:45:30Z</time>
      </trkpt>
      <trkpt lat="43.83194" lon="6.55773">
        <ele>993.6</ele>
        <time>2014-11-23T13:45:37Z</time>
      </trkpt>
      <trkpt lat="43.83176" lon="6.55785">
        <ele>989.6</ele>
        <time>2014-11-23T13:45:49Z</time>
      </trkpt>
      <trkpt lat="43.83167" lon="6.55793">
        <ele>987.6</ele>
        <time>2014-11-23T13:45:55Z</time>
      </trkpt>
      <trkpt lat="43.83158" lon="6.55797">
        <ele>985.9</ele>
        <time>2014-11-23T13:46:00Z</time>
      </trkpt>
      <trkpt lat="43.8315" lon="6.55805">
        <ele>983.9</ele>
        <time>2014-11-23T13:46:08Z</time>
      </trkpt>
      <trkpt lat="43.83143" lon="6.55817">
        <ele>982.8</ele>
        <time>2014-11-23T13:46:14Z</time>
      </trkpt>
      <trkpt lat="43.83136" lon="6.55827">
        <ele>981</ele>
        <time>2014-11-23T13:46:21Z</time>
      </trkpt>
      <trkpt lat="43.8313" lon="6.55838">
        <ele>979.4</ele>
        <time>2014-11-23T13:46:29Z</time>
      </trkpt>
      <trkpt lat="43.83123" lon="6.55847">
        <ele>977.5</ele>
        <time>2014-11-23T13:46:38Z</time>
      </trkpt>
      <trkpt lat="43.83107" lon="6.55859">
        <ele>973.9</ele>
        <time>2014-11-23T13:46:55Z</time>
      </trkpt>
      <trkpt lat="43.83098" lon="6.55863">
        <ele>971.9</ele>
        <time>2014-11-23T13:47:01Z</time>
      </trkpt>
      <trkpt lat="43.83089" lon="6.55862">
        <ele>969.6</ele>
        <time>2014-11-23T13:47:10Z</time>
      </trkpt>
      <trkpt lat="43.83084" lon="6.55851">
        <ele>967.7</ele>
        <time>2014-11-23T13:47:17Z</time>
      </trkpt>
      <trkpt lat="43.83081" lon="6.55838">
        <ele>965.6</ele>
        <time>2014-11-23T13:47:25Z</time>
      </trkpt>
      <trkpt lat="43.83075" lon="6.55828">
        <ele>963.7</ele>
        <time>2014-11-23T13:47:32Z</time>
      </trkpt>
      <trkpt lat="43.83065" lon="6.55823">
        <ele>961.7</ele>
        <time>2014-11-23T13:47:40Z</time>
      </trkpt>
      <trkpt lat="43.83047" lon="6.55817">
        <ele>957.1</ele>
        <time>2014-11-23T13:48:03Z</time>
      </trkpt>
      <trkpt lat="43.83045" lon="6.55803">
        <ele>956.6</ele>
        <time>2014-11-23T13:48:13Z</time>
      </trkpt>
      <trkpt lat="43.83045" lon="6.5579">
        <ele>956.7</ele>
        <time>2014-11-23T13:48:19Z</time>
      </trkpt>
      <trkpt lat="43.83045" lon="6.55777">
        <ele>956.9</ele>
        <time>2014-11-23T13:48:26Z</time>
      </trkpt>
      <trkpt lat="43.83052" lon="6.55768">
        <ele>957.1</ele>
        <time>2014-11-23T13:48:33Z</time>
      </trkpt>
      <trkpt lat="43.83054" lon="6.55766">
        <ele>962</ele>
        <time>2014-11-23T14:03:58Z</time>
      </trkpt>
    </trkseg>
  </trk>
</gpx>